Data for 03/13/2007

Time Sea-Level Adjusted Pressure Absolute Pressure Temperature Relative Humidity Dew Point Precipitation   
(mb) (inHg) (mb) (inHg) (C) (F) (%) (C) (F) (mm) (in)
00:01 1019 30.09 849 25.07 4.6 40.3 89 2.9 37.3 0
00:02 1020 30.12 849 25.07 4.6 40.2 89 2.9 37.2 0
00:03 1020 30.12 849 25.07 4.5 40 89 2.8 37.1 0
00:04 1020 30.12 849 25.07 4.5 40.1 89 2.8 37.1 0
00:05 1020 30.12 849 25.07 4.5 40.1 89 2.8 37.1 0
00:06 1020 30.12 849 25.07 4.5 40.1 89 2.8 37 0
00:07 1020 30.12 849 25.07 4.5 40 89 2.8 37 0
00:08 1020 30.12 849 25.07 4.6 40.3 88 2.9 37.1 0
00:09 1020 30.12 849 25.07 4.8 40.7 87 2.8 37.1 0
00:10 1020 30.12 849 25.07 4.7 40.5 87 2.8 37 0
00:11 1019 30.09 849 25.07 4.7 40.5 87 2.8 37 0
00:12 1020 30.12 849 25.07 4.8 40.6 87 2.8 37.1 0
00:13 1019 30.09 849 25.07 5.1 41.2 85 2.8 37 0
00:14 1019 30.09 849 25.07 5.6 42.1 83 3 37.4 0
00:15 1019 30.09 849 25.07 5.9 42.6 83 3.2 37.8 0
00:16 1019 30.09 849 25.07 6 42.9 82 3.1 37.7 0
00:17 1019 30.09 849 25.07 6.2 43.1 82 3.3 37.9 0
00:18 1019 30.09 849 25.07 6.3 43.3 81 3.3 37.9 0
00:19 1019 30.09 849 25.07 6.4 43.5 79 3 37.4 0
00:20 1019 30.09 849 25.07 6.5 43.7 77 2.8 37.1 0
00:21 1019 30.09 849 25.07 6.7 44 77 2.9 37.2 0
00:22 1019 30.09 848 25.04 6.8 44.2 77 3 37.4 0
00:23 1019 30.09 848 25.04 6.8 44.3 77 3 37.4 0
00:24 1019 30.09 848 25.04 6.8 44.3 76 3 37.3 0
00:25 1019 30.09 848 25.04 6.8 44.3 76 3 37.3 0
00:26 1019 30.09 848 25.04 6.9 44.4 76 2.9 37.3 0
00:27 1019 30.09 848 25.04 6.9 44.5 76 3 37.3 0
00:28 1019 30.09 848 25.04 6.9 44.4 76 3 37.4 0
00:29 1019 30.09 848 25.04 6.9 44.5 76 3 37.3 0
00:30 1019 30.09 848 25.04 6.9 44.4 76 2.9 37.3 0
00:31 1019 30.09 848 25.04 7 44.7 74 2.8 37 0
00:32 1019 30.09 848 25.04 7.1 44.8 75 2.9 37.3 0
00:33 1019 30.09 848 25.04 7.1 44.7 75 3 37.4 0
00:34 1019 30.09 848 25.04 7.1 44.8 75 2.9 37.3 0
00:35 1019 30.09 848 25.04 7.1 44.7 76 3.1 37.5 0
00:36 1019 30.09 848 25.04 7.1 44.8 75 2.9 37.3 0
00:37 1019 30.09 848 25.04 7.1 44.7 75 3 37.4 0
00:38 1019 30.09 848 25.04 6.9 44.5 77 3.2 37.7 0
00:39 1019 30.09 848 25.04 6.7 44 78 3.1 37.6 0
00:40 1019 30.09 848 25.04 6.5 43.7 79 3 37.5 0
00:41 1019 30.09 848 25.04 6.3 43.4 79 2.9 37.3 0
00:42 1019 30.09 848 25.04 6.3 43.3 79 2.9 37.2 0
00:43 1019 30.09 848 25.04 6.2 43.2 79 2.9 37.3 0
00:44 1019 30.09 848 25.04 6.2 43.2 79 2.8 37.1 0
00:45 1019 30.09 848 25.04 6.2 43.2 79 2.9 37.2 0
00:46 1019 30.09 848 25.04 6.3 43.3 79 2.8 37.1 0
00:47 1019 30.09 848 25.04 6.3 43.4 77 2.6 36.6 0
00:48 1019 30.09 848 25.04 6.5 43.7 77 2.7 36.9 0
00:49 1019 30.09 848 25.04 6.6 43.8 77 2.8 37.1 0
00:50 1019 30.09 848 25.04 6.5 43.7 77 2.8 37 0
00:51 1019 30.09 848 25.04 6.5 43.7 77 2.8 37 0
00:52 1019 30.09 848 25.04 6.5 43.6 77 2.8 37 0
00:53 1019 30.09 848 25.04 6.4 43.6 77 2.8 37 0
00:54 1019 30.09 848 25.04 6.4 43.5 78 2.8 37 0
00:55 1019 30.09 848 25.04 6.3 43.3 78 2.8 37 0
00:56 1019 30.09 848 25.04 6.3 43.3 78 2.8 37 0
00:57 1019 30.09 848 25.04 6.2 43.1 79 2.8 37 0
00:58 1019 30.09 848 25.04 6.1 43 79 2.7 36.9 0
00:59 1019 30.09 848 25.04 6 42.9 79 2.7 36.9 0
01:00 1019 30.09 848 25.04 6 42.7 80 2.7 36.9 0
01:01 1019 30.09 848 25.04 5.9 42.6 80 2.7 36.9 0
01:02 1019 30.09 848 25.04 5.8 42.4 81 2.7 36.9 0
01:03 1019 30.09 848 25.04 5.7 42.2 81 2.7 36.8 0
01:04 1019 30.09 848 25.04 5.6 42.1 82 2.7 36.9 0
01:05 1019 30.09 848 25.04 5.5 41.9 82 2.8 37 0
01:06 1019 30.09 848 25.04 5.5 41.8 83 2.7 36.9 0
01:07 1019 30.09 848 25.04 5.4 41.7 83 2.7 36.8 0
01:08 1019 30.09 848 25.04 5.3 41.5 83 2.7 36.8 0
01:09 1019 30.09 848 25.04 5.2 41.4 83 2.7 36.8 0
01:10 1019 30.09 848 25.04 5.1 41.2 83 2.5 36.6 0
01:11 1019 30.09 848 25.04 5 41 84 2.5 36.5 0
01:12 1019 30.09 848 25.04 5 40.9 84 2.5 36.5 0
01:13 1019 30.09 848 25.04 4.9 40.9 84 2.5 36.5 0
01:14 1019 30.09 848 25.04 4.9 40.9 84 2.5 36.4 0
01:15 1019 30.09 848 25.04 5 41.1 82 2.3 36.1 0
01:16 1019 30.09 848 25.04 5.3 41.6 81 2.3 36.2 0
01:17 1019 30.09 848 25.04 5.4 41.8 80 2.3 36.1 0
01:18 1019 30.09 848 25.04 5.5 41.9 80 2.4 36.3 0
01:19 1019 30.09 848 25.04 5.5 41.9 81 2.4 36.4 0
01:20 1019 30.09 848 25.04 5.4 41.7 81 2.4 36.3 0
01:21 1019 30.09 848 25.04 5.3 41.5 81 2.4 36.3 0
01:22 1019 30.09 848 25.04 5.2 41.4 82 2.4 36.2 0
01:23 1019 30.09 848 25.04 5.1 41.3 82 2.3 36.1 0
01:24 1019 30.09 848 25.04 5.2 41.3 81 2.3 36.1 0
01:25 1019 30.09 848 25.04 5.3 41.5 80 2 35.7 0
01:26 1019 30.09 848 25.04 5.6 42.2 78 2.1 35.7 0
01:27 1019 30.09 848 25.04 5.9 42.7 77 2.2 36 0
01:28 1019 30.09 848 25.04 5.9 42.7 78 2.4 36.4 0
01:29 1019 30.09 848 25.04 5.8 42.5 79 2.4 36.4 0
01:30 1019 30.09 848 25.04 5.8 42.4 79 2.4 36.3 0
01:31 1019 30.09 848 25.04 5.8 42.4 78 2.3 36.1 0
01:32 1019 30.09 848 25.04 6 42.7 76 2.1 35.7 0
01:33 1019 30.09 848 25.04 6.3 43.3 75 2.2 35.9 0
01:34 1019 30.09 848 25.04 6.5 43.7 74 2.2 35.9 0
01:35 1019 30.09 848 25.04 6.6 43.9 73 2.1 35.8 0
01:36 1019 30.09 848 25.04 6.8 44.2 74 2.5 36.4 0
01:37 1019 30.09 848 25.04 6.6 43.9 75 2.5 36.4 0
01:38 1019 30.09 848 25.04 6.4 43.5 76 2.4 36.3 0
01:39 1019 30.09 848 25.04 6.2 43.2 77 2.5 36.5 0
01:40 1019 30.09 848 25.04 6 42.7 78 2.4 36.3 0
01:41 1019 30.09 848 25.04 5.7 42.2 79 2.3 36.1 0
01:42 1019 30.09 848 25.04 5.5 41.9 79 2.2 36 0
01:43 1019 30.09 848 25.04 5.4 41.7 80 2.2 36 0
01:44 1019 30.09 848 25.04 5.4 41.7 80 2.2 35.9 0
01:45 1019 30.09 848 25.04 5.4 41.7 80 2.1 35.8 0
01:46 1019 30.09 848 25.04 5.4 41.7 79 2.1 35.8 0
01:47 1019 30.09 848 25.04 5.4 41.8 79 2.1 35.8 0
01:48 1019 30.09 848 25.04 5.6 42 78 2.1 35.7 0
01:49 1019 30.09 848 25.04 5.8 42.4 77 2.1 35.8 0
01:50 1019 30.09 848 25.04 5.9 42.6 76 2.1 35.7 0
01:51 1019 30.09 848 25.04 6 42.9 75 2 35.6 0
01:52 1019 30.09 848 25.04 6.2 43.2 73 1.8 35.2 0
01:53 1019 30.09 848 25.04 6.6 43.8 71 1.7 35.1 0
01:54 1019 30.09 848 25.04 6.8 44.3 71 1.9 35.4 0
01:55 1019 30.09 848 25.04 6.9 44.4 70 1.9 35.4 0
01:56 1019 30.09 848 25.04 6.8 44.3 71 2 35.5 0
01:57 1019 30.09 848 25.04 6.7 44.1 71 1.9 35.5 0
01:58 1019 30.09 848 25.04 6.6 43.9 72 1.9 35.4 0
01:59 1019 30.09 848 25.04 6.4 43.6 72 1.8 35.3 0
02:00 1019 30.09 848 25.04 6.3 43.4 73 1.8 35.2 0
02:01 1019 30.09 848 25.04 6.1 42.9 74 1.8 35.2 0
02:02 1019 30.09 848 25.04 6 42.8 74 1.7 35 0
02:03 1019 30.09 848 25.04 6 42.8 74 1.7 35 0
02:04 1019 30.09 848 25.04 6 42.8 74 1.7 35 0
02:05 1019 30.09 848 25.04 5.9 42.6 74 1.6 34.9 0
02:06 1019 30.09 848 25.04 5.8 42.5 74 1.6 34.9 0
02:07 1019 30.09 848 25.04 5.7 42.3 75 1.6 34.9 0
02:08 1019 30.09 848 25.04 5.6 42.2 76 1.7 35 0
02:09 1019 30.09 848 25.04 5.6 42.1 76 1.7 35 0
02:10 1019 30.09 848 25.04 5.6 42 76 1.7 35 0
02:11 1019 30.09 848 25.04 5.4 41.8 77 1.7 35.1 0
02:12 1019 30.09 848 25.04 5.4 41.7 77 1.8 35.2 0
02:13 1019 30.09 848 25.04 5.4 41.7 77 1.7 35 0
02:14 1019 30.09 848 25.04 5.4 41.6 77 1.7 35.1 0
02:15 1019 30.09 848 25.04 5.2 41.3 78 1.7 35 0
02:16 1019 30.09 848 25.04 5 41 79 1.7 35 0
02:17 1019 30.09 848 25.04 5 41 79 1.7 35.1 0
02:18 1019 30.09 848 25.04 5.1 41.2 78 1.6 34.9 0
02:19 1019 30.09 848 25.04 5.2 41.3 77 1.5 34.7 0
02:20 1019 30.09 848 25.04 4.9 40.9 77 1.2 34.1 0
02:21 1019 30.09 848 25.04 4.4 39.9 79 1 33.7 0
02:22 1019 30.09 848 25.04 3.8 38.8 82 1 33.8 0
02:23 1019 30.09 848 25.04 3.4 38.1 84 0.9 33.7 0
02:24 1019 30.09 848 25.04 3.1 37.6 84 0.7 33.3 0
02:25 1019 30.09 848 25.04 2.9 37.2 86 0.7 33.3 0
02:26 1019 30.09 848 25.04 2.8 37 86 0.7 33.2 0
02:27 1018 30.06 848 25.04 2.6 36.7 87 0.7 33.2 0
02:28 1019 30.09 848 25.04 2.6 36.6 88 0.8 33.4 0
02:29 1019 30.09 848 25.04 2.6 36.7 89 0.9 33.7 0
02:30 1019 30.09 848 25.04 2.8 37 87 0.8 33.5 0
02:31 1019 30.09 848 25.04 3.2 37.8 84 0.8 33.4 0
02:32 1018 30.06 848 25.04 3.5 38.2 83 0.9 33.7 0
02:33 1018 30.06 848 25.04 3.5 38.4 83 0.9 33.6 0
02:34 1018 30.06 848 25.04 3.6 38.4 82 0.7 33.3 0
02:35 1018 30.06 848 25.04 3.4 38.1 82 0.7 33.2 0
02:36 1018 30.06 848 25.04 3.1 37.6 85 0.8 33.4 0
02:37 1018 30.06 848 25.04 3 37.4 85 0.7 33.3 0
02:38 1018 30.06 848 25.04 3 37.4 85 0.7 33.3 0
02:39 1018 30.06 848 25.04 3.2 37.8 84 0.7 33.3 0
02:40 1018 30.06 848 25.04 3.4 38.2 82 0.7 33.2 0
02:41 1018 30.06 848 25.04 3.7 38.6 81 0.6 33.1 0
02:42 1018 30.06 848 25.04 3.9 38.9 80 0.7 33.2 0
02:43 1018 30.06 848 25.04 4 39.3 78 0.6 33 0
02:44 1018 30.06 848 25.04 4.2 39.6 77 0.6 33.1 0
02:45 1018 30.06 848 25.04 4.5 40 76 0.6 33.1 0
02:46 1018 30.06 848 25.04 4.6 40.3 76 0.7 33.2 0
02:47 1018 30.06 848 25.04 4.7 40.4 75 0.6 33.1 0
02:48 1018 30.06 848 25.04 4.9 40.8 74 0.7 33.2 0
02:49 1018 30.06 847 25.01 5.1 41.1 73 0.7 33.2 0
02:50 1018 30.06 847 25.01 5.2 41.3 73 0.7 33.3 0
02:51 1018 30.06 847 25.01 5.3 41.5 73 0.7 33.3 0
02:52 1018 30.06 847 25.01 5.2 41.4 73 0.8 33.4 0
02:53 1018 30.06 847 25.01 5.2 41.3 73 0.7 33.3 0
02:54 1018 30.06 847 25.01 5.2 41.4 72 0.7 33.2 0
02:55 1018 30.06 847 25.01 5.4 41.7 71 0.6 33.2 0
02:56 1018 30.06 847 25.01 5.5 41.9 71 0.6 33.1 0
02:57 1018 30.06 847 25.01 5.6 42.1 70 0.6 33.1 0
02:58 1018 30.06 847 25.01 5.6 42.1 70 0.6 33.1 0
02:59 1018 30.06 847 25.01 5.5 41.9 70 0.6 33 0
03:00 1018 30.06 847 25.01 5.5 41.8 71 0.6 33 0
03:01 1018 30.06 847 25.01 5.4 41.6 71 0.5 32.9 0
03:02 1018 30.06 847 25.01 5.3 41.5 71 0.5 32.9 0
03:03 1018 30.06 847 25.01 5.2 41.3 72 0.5 32.9 0
03:04 1018 30.06 847 25.01 5 41.1 72 0.5 32.8 0
03:05 1018 30.06 847 25.01 5.1 41.2 71 0.3 32.6 0
03:06 1018 30.06 847 25.01 5.3 41.5 70 0.4 32.6 0
03:07 1018 30.06 847 25.01 5.4 41.6 70 0.4 32.7 0
03:08 1018 30.06 847 25.01 5.3 41.6 70 0.4 32.7 0
03:09 1018 30.06 847 25.01 5.2 41.4 71 0.3 32.6 0
03:10 1018 30.06 847 25.01 5.2 41.4 70 0.3 32.6 0
03:11 1018 30.06 847 25.01 5.3 41.6 70 0.4 32.7 0
03:12 1018 30.06 847 25.01 5.3 41.5 71 0.4 32.7 0
03:13 1018 30.06 847 25.01 5.2 41.4 71 0.4 32.7 0
03:14 1018 30.06 847 25.01 5.2 41.4 71 0.3 32.6 0
03:15 1018 30.06 847 25.01 5.3 41.6 70 0.4 32.6 0
03:16 1018 30.06 847 25.01 5.5 41.9 69 0.3 32.6 0
03:17 1018 30.06 847 25.01 5.8 42.4 68 0.4 32.7 0
03:18 1018 30.06 847 25.01 6 42.8 68 0.5 33 0
03:19 1018 30.06 847 25.01 6 42.8 68 0.6 33 0
03:20 1018 30.06 847 25.01 5.9 42.6 69 0.6 33.1 0
03:21 1018 30.06 847 25.01 5.7 42.3 69 0.5 33 0
03:22 1018 30.06 847 25.01 5.6 42.1 70 0.6 33.1 0
03:23 1018 30.06 847 25.01 5.4 41.8 71 0.6 33 0
03:24 1018 30.06 847 25.01 5.2 41.4 72 0.5 33 0
03:25 1018 30.06 847 25.01 5 41 72 0.5 32.9 0
03:26 1018 30.06 847 25.01 4.8 40.6 73 0.4 32.7 0
03:27 1018 30.06 847 25.01 4.5 40.2 74 0.3 32.6 0
03:28 1018 30.06 847 25.01 4.3 39.7 75 0.2 32.4 0
03:29 1018 30.06 847 25.01 3.9 39.1 77 0.2 32.3 0
03:30 1018 30.06 847 25.01 3.6 38.4 78 0.1 32.1 0
03:31 1018 30.06 847 25.01 3.3 37.9 79 0.1 32.1 0
03:32 1018 30.06 847 25.01 3.1 37.5 80 0 32.1 0
03:33 1018 30.06 847 25.01 2.9 37.3 81 -0 32 0
03:34 1018 30.06 847 25.01 2.9 37.1 82 0 32 0
03:35 1018 30.06 847 25.01 2.8 37.1 82 0 32.1 0
03:36 1018 30.06 847 25.01 2.8 37.1 82 0.1 32.1 0
03:37 1018 30.06 847 25.01 2.9 37.2 82 0.1 32.2 0
03:38 1018 30.06 847 25.01 2.9 37.2 81 0 32.1 0
03:39 1018 30.06 847 25.01 2.9 37.3 81 0 32.1 0
03:40 1018 30.06 847 25.01 3 37.4 81 0.1 32.2 0
03:41 1018 30.06 847 25.01 3 37.5 81 0.1 32.2 0
03:42 1018 30.06 847 25.01 3.1 37.5 81 0.1 32.2 0
03:43 1018 30.06 847 25.01 3.2 37.7 80 0.1 32.2 0
03:44 1018 30.06 847 25.01 3.2 37.8 80 0.2 32.3 0
03:45 1018 30.06 847 25.01 3.3 37.9 80 0.1 32.2 0
03:46 1018 30.06 847 25.01 3.3 37.9 80 0.1 32.2 0
03:47 1018 30.06 847 25.01 3.3 37.9 80 0.1 32.1 0
03:48 1018 30.06 847 25.01 3.3 37.9 80 0.1 32.1 0
03:49 1018 30.06 847 25.01 3.3 37.9 80 0.1 32.2 0
03:50 1018 30.06 847 25.01 3.3 37.9 79 0.1 32.1 0
03:51 1018 30.06 847 25.01 3.4 38.1 78 -0 31.9 0
03:52 1017 30.03 847 25.01 3.4 38.1 79 0 32.1 0
03:53 1017 30.03 847 25.01 3.5 38.3 78 -0 32 0
03:54 1017 30.03 847 25.01 3.5 38.3 78 -0 31.9 0
03:55 1017 30.03 847 25.01 3.5 38.3 78 -0 32 0
03:56 1017 30.03 847 25.01 3.5 38.2 77 -0.1 31.8 0
03:57 1017 30.03 847 25.01 3.4 38.1 78 -0 31.9 0
03:58 1017 30.03 847 25.01 3.3 38 78 -0.1 31.8 0
03:59 1017 30.03 847 25.01 3.3 37.9 78 -0.2 31.7 0
04:00 1017 30.03 847 25.01 3.3 37.9 78 -0.1 31.7 0
04:01 1017 30.03 847 25.01 3.2 37.7 78 -0.2 31.6 0
04:02 1017 30.03 847 25.01 3.2 37.7 79 -0.2 31.7 0
04:03 1017 30.03 847 25.01 3.1 37.6 79 -0.2 31.7 0
04:04 1017 30.03 847 25.01 3.2 37.7 79 -0.1 31.8 0
04:05 1017 30.03 847 25.01 3.2 37.7 79 -0.1 31.8 0
04:06 1017 30.03 847 25.01 3.1 37.7 79 -0.2 31.7 0
04:07 1017 30.03 847 25.01 3.1 37.7 79 -0.2 31.7 0
04:08 1017 30.03 847 25.01 3 37.4 80 -0.2 31.7 0
04:09 1017 30.03 847 25.01 3 37.4 79 -0.3 31.5 0
04:10 1017 30.03 847 25.01 3.1 37.5 78 -0.3 31.4 0
04:11 1017 30.03 847 25.01 3.2 37.7 78 -0.3 31.5 0
04:12 1017 30.03 847 25.01 3.2 37.8 78 -0.2 31.7 0
04:13 1017 30.03 847 25.01 3.3 37.9 78 -0.2 31.7 0
04:14 1017 30.03 847 25.01 3.1 37.6 79 -0.2 31.6 0
04:15 1017 30.03 847 25.01 3 37.4 80 -0.2 31.7 0
04:16 1017 30.03 847 25.01 3 37.4 80 -0.2 31.7 0
04:17 1017 30.03 847 25.01 3.1 37.5 79 -0.2 31.7 0
04:18 1017 30.03 847 25.01 3.2 37.8 78 -0.2 31.7 0
04:19 1017 30.03 847 25.01 3.5 38.3 77 -0.2 31.6 0
04:20 1017 30.03 847 25.01 3.8 38.9 75 -0.1 31.8 0
04:21 1017 30.03 847 25.01 4.1 39.4 74 -0.1 31.9 0
04:22 1017 30.03 847 25.01 4.2 39.6 74 -0.1 31.9 0
04:23 1017 30.03 847 25.01 4.2 39.5 74 -0.1 31.9 0
04:24 1017 30.03 846 24.98 4.1 39.4 74 -0.1 31.9 0
04:25 1017 30.03 846 24.98 4 39.1 75 -0.1 31.8 0
04:26 1017 30.03 846 24.98 3.8 38.8 75 -0.1 31.8 0
04:27 1017 30.03 846 24.98 3.8 38.8 76 -0.1 31.8 0
04:28 1017 30.03 846 24.98 3.8 38.9 75 -0.1 31.8 0
04:29 1017 30.03 846 24.98 4 39.1 75 -0.1 31.8 0
04:30 1017 30.03 846 24.98 4.1 39.5 74 -0.1 31.9 0
04:31 1017 30.03 846 24.98 4.5 40 72 -0.1 31.9 0
04:32 1017 30.03 846 24.98 4.7 40.4 71 -0.1 31.9 0
04:33 1017 30.03 846 24.98 4.7 40.5 71 -0 32 0
04:34 1017 30.03 846 24.98 4.7 40.4 72 -0 32 0
04:35 1017 30.03 846 24.98 4.6 40.3 72 -0 31.9 0
04:36 1017 30.03 846 24.98 4.6 40.2 72 -0.1 31.9 0
04:37 1017 30.03 846 24.98 4.6 40.3 72 -0.1 31.9 0
04:38 1017 30.03 846 24.98 4.6 40.2 72 -0.1 31.9 0
04:39 1017 30.03 846 24.98 4.5 40.1 72 -0 31.9 0
04:40 1017 30.03 846 24.98 4.4 40 72 -0.1 31.9 0
04:41 1017 30.03 846 24.98 4.4 40 72 -0.1 31.8 0
04:42 1017 30.03 846 24.98 4.3 39.7 74 0 32 0
04:43 1017 30.03 846 24.98 4.3 39.7 73 -0.1 31.8 0
04:44 1017 30.03 846 24.98 4.4 39.9 72 -0.2 31.7 0
04:45 1017 30.03 846 24.98 4.5 40 72 -0.1 31.7 0
04:46 1017 30.03 846 24.98 4.6 40.3 71 -0.2 31.7 0
04:47 1017 30.03 846 24.98 4.8 40.7 71 -0.1 31.9 0
04:48 1017 30.03 846 24.98 4.9 40.8 70 -0 31.9 0
04:49 1017 30.03 846 24.98 4.8 40.6 71 0 32 0
04:50 1017 30.03 846 24.98 4.5 40.2 73 0 32.1 0
04:51 1017 30.03 846 24.98 4.2 39.6 74 -0.1 31.9 0
04:52 1017 30.03 846 24.98 4.1 39.4 74 -0.1 31.8 0
04:53 1017 30.03 846 24.98 4.2 39.5 74 -0.1 31.8 0
04:54 1017 30.03 846 24.98 4.4 39.9 72 -0.3 31.5 0
04:55 1017 30.03 846 24.98 4.4 39.9 71 -0.3 31.4 0
04:56 1017 30.03 846 24.98 4.2 39.5 73 -0.2 31.7 0
04:57 1017 30.03 846 24.98 4.2 39.6 74 -0.1 31.8 0
04:58 1017 30.03 846 24.98 4.3 39.7 73 -0.2 31.7 0
04:59 1017 30.03 846 24.98 4.2 39.6 73 -0.2 31.7 0
05:00 1017 30.03 846 24.98 3.8 38.9 75 -0.3 31.5 0
05:01 1017 30.03 846 24.98 3.7 38.6 76 -0.2 31.6 0
05:02 1017 30.03 846 24.98 3.7 38.7 74 -0.6 31 0
05:03 1017 30.03 846 24.98 3.5 38.3 76 -0.3 31.5 0
05:04 1017 30.03 846 24.98 3.5 38.3 76 -0.3 31.5 0
05:05 1017 30.03 846 24.98 3.6 38.5 76 -0.2 31.6 0
05:06 1017 30.03 846 24.98 3.8 38.9 74 -0.5 31.2 0
05:07 1017 30.03 846 24.98 3.8 38.8 75 -0.3 31.5 0
05:08 1017 30.03 846 24.98 4 39.1 74 -0.3 31.4 0
05:09 1017 30.03 846 24.98 4.3 39.7 72 -0.3 31.4 0
05:10 1017 30.03 846 24.98 4.3 39.8 71 -0.4 31.2 0
05:11 1017 30.03 846 24.98 4.6 40.2 70 -0.4 31.2 0
05:12 1017 30.03 846 24.98 4.9 40.8 69 -0.4 31.3 0
05:13 1017 30.03 846 24.98 5 41 69 -0.2 31.6 0
05:14 1017 30.03 846 24.98 4.9 40.9 69 -0.2 31.7 0
05:15 1017 30.03 846 24.98 4.9 40.8 70 -0.1 31.8 0
05:16 1017 30.03 846 24.98 4.9 40.7 70 -0.1 31.9 0
05:17 1017 30.03 846 24.98 4.8 40.7 70 -0.1 31.7 0
05:18 1017 30.03 846 24.98 4.8 40.7 71 -0 32 0
05:19 1017 30.03 846 24.98 4.8 40.6 69 -0.3 31.4 0
05:20 1017 30.03 846 24.98 4.6 40.3 71 -0.2 31.6 0
05:21 1017 30.03 846 24.98 4.6 40.2 70 -0.4 31.2 0
05:22 1017 30.03 846 24.98 4.3 39.8 72 -0.3 31.4 0
05:23 1017 30.03 846 24.98 4.5 40 72 -0.2 31.7 0
05:24 1017 30.03 846 24.98 4.8 40.6 71 -0.1 31.8 0
05:25 1017 30.03 846 24.98 5.4 41.7 68 -0.1 31.9 0
05:26 1017 30.03 846 24.98 5.7 42.3 66 -0.1 31.8 0
05:27 1017 30.03 846 24.98 6 42.8 65 0 32 0
05:28 1017 30.03 846 24.98 6.1 43 65 0 32 0
05:29 1017 30.03 846 24.98 6 42.9 65 0 32 0
05:30 1017 30.03 846 24.98 6 42.7 66 0 32 0
05:31 1017 30.03 846 24.98 5.9 42.7 66 0 32.1 0
05:32 1017 30.03 846 24.98 5.9 42.6 66 0 32.1 0
05:33 1017 30.03 846 24.98 5.9 42.7 66 0 32 0
05:34 1017 30.03 846 24.98 6 42.9 65 0 32 0
05:35 1017 30.03 846 24.98 6.2 43.1 64 -0 32 0
05:36 1017 30.03 846 24.98 6.3 43.4 62 -0.4 31.3 0
05:37 1017 30.03 846 24.98 6.6 43.9 62 -0.2 31.6 0
05:38 1017 30.03 846 24.98 6.8 44.3 62 -0 32 0
05:39 1017 30.03 846 24.98 6.9 44.4 62 0.1 32.2 0
05:40 1017 30.03 846 24.98 7 44.6 61 0.1 32.2 0
05:41 1017 30.03 846 24.98 7 44.6 62 0.2 32.3 0
05:42 1017 30.03 846 24.98 6.9 44.3 62 0.1 32.1 0
05:43 1017 30.03 846 24.98 6.9 44.4 59 -0.4 31.2 0
05:44 1017 30.03 846 24.98 7.2 44.9 60 -0.1 31.8 0
05:45 1017 30.03 846 24.98 7.2 44.9 60 -0 32 0
05:46 1017 30.03 846 24.98 6.9 44.5 62 0.1 32.2 0
05:47 1017 30.03 846 24.98 6.7 44 63 0.1 32.1 0
05:48 1017 30.03 846 24.98 6.5 43.7 62 -0.2 31.7 0
05:49 1017 30.03 846 24.98 6.5 43.7 62 -0.2 31.7 0
05:50 1017 30.03 846 24.98 6.5 43.7 62 -0.2 31.7 0
05:51 1017 30.03 846 24.98 6.4 43.5 63 -0.2 31.6 0
05:52 1017 30.03 846 24.98 6.3 43.3 63 -0.2 31.7 0
05:53 1017 30.03 846 24.98 6.2 43.2 62 -0.4 31.2 0
05:54 1017 30.03 846 24.98 6.4 43.4 61 -0.5 31 0
05:55 1017 30.03 846 24.98 6.5 43.7 61 -0.4 31.3 0
05:56 1017 30.03 846 24.98 6.5 43.7 62 -0.3 31.4 0
05:57 1017 30.03 846 24.98 6.5 43.6 62 -0.3 31.5 0
05:58 1017 30.03 846 24.98 6.4 43.6 62 -0.2 31.6 0
05:59 1017 30.03 846 24.98 6.4 43.4 62 -0.4 31.2 0
06:00 1017 30.03 846 24.98 6.5 43.8 61 -0.5 31.1 0
06:01 1017 30.03 846 24.98 6.6 44 62 -0.2 31.7 0
06:02 1017 30.03 846 24.98 6.5 43.8 63 -0.1 31.9 0
06:03 1017 30.03 846 24.98 6.4 43.4 63 -0.2 31.6 0
06:04 1017 30.03 846 24.98 6.3 43.3 63 -0.1 31.8 0
06:05 1017 30.03 846 24.98 6.1 43 64 -0.2 31.6 0
06:06 1017 30.03 846 24.98 6.2 43.1 63 -0.3 31.5 0
06:07 1017 30.03 846 24.98 6.1 43 63 -0.5 31.2 0
06:08 1017 30.03 846 24.98 6.2 43.2 62 -0.6 31 0
06:09 1017 30.03 846 24.98 6.3 43.4 62 -0.4 31.2 0
06:10 1017 30.03 846 24.98 6.3 43.4 63 -0.3 31.5 0
06:11 1017 30.03 846 24.98 6.2 43.1 63 -0.2 31.6 0
06:12 1017 30.03 846 24.98 6 42.8 64 -0.3 31.5 0
06:13 1017 30.03 846 24.98 5.9 42.5 64 -0.3 31.4 0
06:14 1017 30.03 846 24.98 5.8 42.4 65 -0.3 31.4 0
06:15 1017 30.03 846 24.98 5.8 42.4 64 -0.4 31.3 0
06:16 1017 30.03 846 24.98 5.8 42.5 64 -0.4 31.3 0
06:17 1017 30.03 846 24.98 5.9 42.7 64 -0.4 31.2 0
06:18 1017 30.03 846 24.98 6 42.8 63 -0.4 31.2 0
06:19 1017 30.03 846 24.98 6.2 43.2 62 -0.4 31.2 0
06:20 1017 30.03 846 24.98 6.3 43.3 62 -0.4 31.4 0
06:21 1017 30.03 846 24.98 6.2 43.2 64 -0.1 31.7 0
06:22 1017 30.03 846 24.98 5.9 42.6 65 -0.2 31.6 0
06:23 1017 30.03 846 24.98 5.7 42.3 65 -0.3 31.4 0
06:24 1017 30.03 846 24.98 5.7 42.3 63 -0.7 30.8 0
06:25 1017 30.03 846 24.98 6.1 43 63 -0.5 31.2 0
06:26 1017 30.03 846 24.98 6.2 43.2 63 -0.3 31.4 0
06:27 1017 30.03 846 24.98 6.2 43.1 64 -0.2 31.6 0
06:28 1017 30.03 846 24.98 6 42.8 64 -0.2 31.6 0
06:29 1017 30.03 846 24.98 5.8 42.5 65 -0.3 31.5 0
06:30 1017 30.03 846 24.98 5.8 42.5 65 -0.3 31.5 0
06:31 1017 30.03 846 24.98 5.8 42.4 65 -0.3 31.5 0
06:32 1017 30.03 846 24.98 5.8 42.4 65 -0.4 31.3 0
06:33 1017 30.03 846 24.98 5.9 42.5 65 -0.3 31.5 0
06:34 1017 30.03 846 24.98 5.8 42.5 65 -0.3 31.4 0
06:35 1017 30.03 846 24.98 5.8 42.5 65 -0.3 31.5 0
06:36 1017 30.03 846 24.98 5.9 42.6 64 -0.3 31.5 0
06:37 1017 30.03 846 24.98 6 42.7 64 -0.4 31.3 0
06:38 1017 30.03 846 24.98 6.1 43 64 -0.2 31.6 0
06:39 1017 30.03 846 24.98 6.2 43.1 63 -0.3 31.4 0
06:40 1017 30.03 846 24.98 6.3 43.3 62 -0.3 31.4 0
06:41 1017 30.03 846 24.98 6.3 43.4 62 -0.4 31.3 0
06:42 1017 30.03 846 24.98 6.4 43.5 62 -0.4 31.4 0
06:43 1017 30.03 846 24.98 6.5 43.7 62 -0.3 31.5 0
06:44 1017 30.03 846 24.98 6.5 43.7 62 -0.2 31.7 0
06:45 1017 30.03 846 24.98 6.5 43.7 63 -0 32 0
06:46 1017 30.03 846 24.98 6.2 43.2 65 0.2 32.3 0
06:47 1017 30.03 846 24.98 5.9 42.6 66 0.1 32.1 0
06:48 1017 30.03 846 24.98 5.7 42.2 66 -0.2 31.7 0
06:49 1017 30.03 846 24.98 5.7 42.3 65 -0.3 31.4 0
06:50 1017 30.03 846 24.98 5.9 42.5 65 -0.2 31.7 0
06:51 1017 30.03 846 24.98 6 42.8 64 -0.4 31.3 0
06:52 1017 30.03 846 24.98 6.2 43.2 62 -0.5 31 0
06:53 1017 30.03 846 24.98 6.5 43.7 62 -0.2 31.7 0
06:54 1017 30.03 846 24.98 6.5 43.7 61 -0.4 31.3 0
06:55 1017 30.03 846 24.98 6.7 44.1 60 -0.6 31 0
06:56 1017 30.03 846 24.98 7.1 44.8 57 -0.8 30.6 0
06:57 1017 30.03 846 24.98 7.7 45.8 56 -0.5 31.1 0
06:58 1017 30.03 846 24.98 7.8 46 58 0.1 32.1 0
06:59 1017 30.03 846 24.98 7.4 45.3 59 -0.1 31.8 0
07:00 1017 30.03 846 24.98 7.1 44.8 59 -0.4 31.3 0
07:01 1017 30.03 846 24.98 7.2 44.9 57 -0.8 30.5 0
07:02 1017 30.03 846 24.98 7.4 45.4 56 -0.9 30.4 0
07:03 1017 30.03 846 24.98 7.7 45.8 55 -0.7 30.8 0
07:04 1017 30.03 846 24.98 7.7 45.9 56 -0.6 30.9 0
07:05 1017 30.03 846 24.98 7.8 46 56 -0.4 31.2 0
07:06 1017 30.03 846 24.98 7.8 46 57 -0.3 31.5 0
07:07 1017 30.03 846 24.98 7.7 45.9 57 -0.3 31.5 0
07:08 1017 30.03 846 24.98 7.6 45.7 58 -0.2 31.7 0
07:09 1017 30.03 846 24.98 7.4 45.4 57 -0.5 31.1 0
07:10 1017 30.03 846 24.98 7.4 45.3 57 -0.5 31.2 0
07:11 1017 30.03 846 24.98 7.4 45.4 57 -0.5 31.1 0
07:12 1017 30.03 846 24.98 7.5 45.5 56 -0.8 30.6 0
07:13 1017 30.03 846 24.98 7.9 46.1 54 -0.9 30.4 0
07:14 1017 30.03 846 24.98 8.1 46.6 54 -0.7 30.7 0
07:15 1017 30.03 846 24.98 8.2 46.7 54 -0.5 31.1 0
07:16 1017 30.03 846 24.98 8.1 46.6 54 -0.5 31.1 0
07:17 1017 30.03 846 24.98 8 46.4 55 -0.4 31.2 0
07:18 1017 30.03 846 24.98 8 46.4 54 -0.6 30.9 0
07:19 1017 30.03 846 24.98 8 46.5 53 -0.9 30.3 0
07:20 1017 30.03 846 24.98 8.1 46.6 54 -0.6 30.9 0
07:21 1017 30.03 846 24.98 8 46.3 56 -0.3 31.5 0
07:22 1017 30.03 846 24.98 7.4 45.3 58 -0.3 31.4 0
07:23 1017 30.03 846 24.98 7.1 44.8 58 -0.5 31 0
07:24 1017 30.03 846 24.98 7.1 44.8 57 -0.7 30.7 0
07:25 1017 30.03 846 24.98 7.3 45.1 58 -0.5 31.1 0
07:26 1017 30.03 846 24.98 7.2 44.9 57 -0.7 30.7 0
07:27 1017 30.03 846 24.98 7.3 45.2 56 -0.9 30.3 0
07:28 1017 30.03 846 24.98 7.6 45.6 55 -0.9 30.4 0
07:29 1017 30.03 846 24.98 7.8 46 55 -0.7 30.8 0
07:30 1017 30.03 846 24.98 7.7 45.9 55 -0.6 30.9 0
07:31 1017 30.03 846 24.98 7.7 45.8 56 -0.7 30.8 0
07:32 1017 30.03 846 24.98 7.6 45.8 57 -0.4 31.3 0
07:33 1017 30.03 846 24.98 7.3 45.2 57 -0.6 30.9 0
07:34 1017 30.03 846 24.98 7.4 45.2 57 -0.5 31.1 0
07:35 1017 30.03 846 24.98 7.3 45.2 58 -0.4 31.3 0
07:36 1017 30.03 846 24.98 7.1 44.7 60 -0.3 31.5 0
07:37 1017 30.03 846 24.98 6.5 43.7 62 -0.2 31.7 0
07:38 1017 30.03 846 24.98 5.8 42.5 65 -0.2 31.7 0
07:39 1017 30.03 846 24.98 5.1 41.1 69 -0.2 31.6 0
07:40 1017 30.03 846 24.98 4.4 40 71 -0.3 31.5 0
07:41 1017 30.03 846 24.98 3.9 39.1 74 -0.4 31.4 0
07:42 1017 30.03 846 24.98 3.4 38.2 76 -0.4 31.3 0
07:43 1017 30.03 846 24.98 3 37.5 78 -0.5 31.1 0
07:44 1017 30.03 846 24.98 2.8 37 79 -0.6 30.9 0
07:45 1017 30.03 846 24.98 2.7 36.8 79 -0.6 30.9 0
07:46 1017 30.03 846 24.98 2.5 36.6 79 -0.7 30.8 0
07:47 1017 30.03 846 24.98 2.4 36.4 80 -0.7 30.8 0
07:48 1017 30.03 846 24.98 2.4 36.3 81 -0.6 30.8 0
07:49 1017 30.03 846 24.98 2.2 36 81 -0.7 30.8 0
07:50 1017 30.03 846 24.98 2.1 35.7 82 -0.7 30.8 0
07:51 1017 30.03 846 24.98 2 35.6 82 -0.7 30.8 0
07:52 1017 30.03 846 24.98 1.9 35.5 83 -0.7 30.8 0
07:53 1017 30.03 846 24.98 1.9 35.3 83 -0.7 30.7 0
07:54 1017 30.03 846 24.98 1.8 35.2 83 -0.7 30.7 0
07:55 1017 30.03 846 24.98 1.8 35.3 83 -0.7 30.7 0
07:56 1017 30.03 846 24.98 1.9 35.3 83 -0.7 30.7 0
07:57 1017 30.03 846 24.98 1.8 35.3 83 -0.7 30.7 0
07:58 1017 30.03 846 24.98 1.8 35.2 84 -0.7 30.8 0
07:59 1017 30.03 846 24.98 1.7 35.1 84 -0.6 30.9 0
08:00 1017 30.03 846 24.98 1.7 35 85 -0.6 30.9 0
08:01 1017 30.03 846 24.98 1.7 35 85 -0.6 30.9 0
08:02 1017 30.03 846 24.98 1.7 35 85 -0.6 30.9 0
08:03 1017 30.03 846 24.98 1.7 35 85 -0.6 30.9 0
08:04 1017 30.03 846 24.98 1.7 35.1 85 -0.6 31 0
08:05 1017 30.03 846 24.98 1.7 35 85 -0.6 30.9 0
08:06 1017 30.03 846 24.98 1.6 34.9 85 -0.6 30.9 0
08:07 1017 30.03 846 24.98 1.7 35 85 -0.6 30.9 0
08:08 1017 30.03 846 24.98 1.7 35.1 85 -0.6 31 0
08:09 1017 30.03 846 24.98 1.7 35 85 -0.5 31.1 0
08:10 1017 30.03 846 24.98 1.6 34.9 86 -0.5 31 0
08:11 1017 30.03 846 24.98 1.6 35 85 -0.6 31 0
08:12 1017 30.03 846 24.98 1.6 34.9 86 -0.5 31.1 0
08:13 1017 30.03 846 24.98 1.6 34.8 86 -0.5 31 0
08:14 1017 30.03 846 24.98 1.8 35.2 85 -0.5 31.1 0
08:15 1017 30.03 846 24.98 1.9 35.4 84 -0.5 31.2 0
08:16 1017 30.03 846 24.98 2.1 35.7 84 -0.4 31.2 0
08:17 1017 30.03 846 24.98 2.2 36 83 -0.4 31.3 0
08:18 1017 30.03 846 24.98 2.3 36.2 82 -0.4 31.3 0
08:19 1017 30.03 846 24.98 2.4 36.4 82 -0.3 31.4 0
08:20 1017 30.03 846 24.98 2.6 36.6 81 -0.3 31.4 0
08:21 1017 30.03 846 24.98 2.7 36.9 81 -0.3 31.5 0
08:22 1017 30.03 846 24.98 2.8 37.1 81 -0.2 31.7 0
08:23 1017 30.03 846 24.98 2.8 37 81 -0.2 31.6 0
08:24 1017 30.03 846 24.98 2.9 37.2 80 -0.2 31.6 0
08:25 1017 30.03 846 24.98 2.9 37.2 80 -0.2 31.6 0
08:26 1017 30.03 846 24.98 3 37.3 80 -0.2 31.7 0
08:27 1017 30.03 846 24.98 2.9 37.3 80 -0.2 31.7 0
08:28 1017 30.03 846 24.98 2.9 37.3 80 -0.2 31.6 0
08:29 1017 30.03 846 24.98 2.9 37.2 80 -0.2 31.6 0
08:30 1017 30.03 846 24.98 3.1 37.5 78 -0.3 31.4 0
08:31 1017 30.03 846 24.98 3.4 38.2 75 -0.5 31.1 0
08:32 1017 30.03 846 24.98 3.9 39 74 -0.4 31.2 0
08:33 1017 30.03 846 24.98 4.1 39.4 72 -0.5 31.1 0
08:34 1017 30.03 846 24.98 4.4 40 70 -0.5 31 0
08:35 1017 30.03 846 24.98 4.7 40.5 69 -0.5 31 0
08:36 1017 30.03 846 24.98 5 41.1 68 -0.4 31.2 0
08:37 1017 30.03 846 24.98 5.2 41.4 66 -0.5 31.1 0
08:38 1017 30.03 846 24.98 5.5 41.9 65 -0.5 31 0
08:39 1017 30.03 846 24.98 5.8 42.5 64 -0.4 31.2 0
08:40 1017 30.03 846 24.98 6 42.9 63 -0.5 31 0
08:41 1017 30.03 846 24.98 6.3 43.4 62 -0.5 31.1 0
08:42 1017 30.03 846 24.98 6.5 43.8 61 -0.3 31.4 0
08:43 1017 30.03 846 24.98 6.6 43.9 61 -0.3 31.5 0
08:44 1017 30.03 846 24.98 6.6 43.9 61 -0.3 31.4 0
08:45 1017 30.03 846 24.98 6.6 43.9 62 -0.1 31.7 0
08:46 1017 30.03 846 24.98 6.5 43.8 62 -0.1 31.8 0
08:47 1017 30.03 846 24.98 6.5 43.6 62 -0.2 31.6 0
08:48 1017 30.03 846 24.98 6.5 43.7 62 -0.3 31.5 0
08:49 1017 30.03 846 24.98 6.5 43.7 62 -0.3 31.5 0
08:50 1017 30.03 846 24.98 6.5 43.8 62 -0.1 31.7 0
08:51 1017 30.03 846 24.98 6.4 43.5 63 0 32 0
08:52 1017 30.03 846 24.98 6.2 43.2 63 -0.3 31.5 0
08:53 1017 30.03 846 24.98 6.1 43 65 0.1 32.2 0
08:54 1017 30.03 846 24.98 5.9 42.5 67 0.3 32.5 0
08:55 1017 30.03 846 24.98 5.4 41.7 70 0.3 32.5 0
08:56 1017 30.03 846 24.98 4.9 40.9 72 0.4 32.7 0
08:57 1017 30.03 846 24.98 4.6 40.3 74 0.3 32.6 0
08:58 1017 30.03 846 24.98 4.3 39.8 75 0.3 32.5 0
08:59 1017 30.03 846 24.98 4.1 39.4 76 0.3 32.5 0
09:00 1017 30.03 846 24.98 4 39.1 77 0.3 32.6 0
09:01 1017 30.03 846 24.98 3.9 39.1 78 0.4 32.8 0
09:02 1017 30.03 846 24.98 4 39.2 77 0.4 32.7 0
09:03 1017 30.03 846 24.98 4.2 39.5 76 0.4 32.7 0
09:04 1017 30.03 846 24.98 4.3 39.7 76 0.4 32.8 0
09:05 1017 30.03 846 24.98 4.3 39.7 76 0.4 32.8 0
09:06 1017 30.03 846 24.98 4.3 39.7 77 0.7 33.2 0
09:07 1017 30.03 846 24.98 4.3 39.8 77 0.7 33.3 0
09:08 1017 30.03 846 24.98 4.4 39.9 77 0.7 33.2 0
09:09 1017 30.03 846 24.98 4.4 40 78 0.9 33.7 0
09:10 1017 30.03 846 24.98 4.5 40.2 78 1 33.7 0
09:11 1017 30.03 846 24.98 4.7 40.4 78 1.1 34.1 0
09:12 1017 30.03 846 24.98 4.7 40.4 78 1.1 34 0
09:13 1017 30.03 846 24.98 4.8 40.6 77 1 33.8 0
09:14 1016 30 846 24.98 4.9 40.9 76 1 33.8 0
09:15 1016 30 846 24.98 5.1 41.2 74 0.9 33.7 0
09:16 1016 30 846 24.98 5.4 41.7 74 1.1 33.9 0
09:17 1016 30 846 24.98 5.6 42.1 72 1 33.8 0
09:18 1016 30 846 24.98 5.8 42.5 73 1.3 34.3 0
09:19 1016 30 846 24.98 6 42.8 71 1.1 34 0
09:20 1017 30.03 846 24.98 6.1 43 71 1.3 34.3 0
09:21 1017 30.03 846 24.98 6.2 43.2 71 1.4 34.5 0
09:22 1017 30.03 846 24.98 6.3 43.4 71 1.4 34.5 0
09:23 1017 30.03 846 24.98 6.4 43.4 70 1.3 34.4 0
09:24 1016 30 846 24.98 6.5 43.6 69 1.1 34.1 0
09:25 1016 30 846 24.98 6.5 43.7 70 1.4 34.5 0
09:26 1017 30.03 846 24.98 6.6 43.8 69 1.3 34.3 0
09:27 1017 30.03 846 24.98 6.5 43.7 70 1.5 34.7 0
09:28 1016 30 846 24.98 6.4 43.5 69 1.2 34.1 0
09:29 1017 30.03 846 24.98 6.4 43.4 69 1.2 34.1 0
09:30 1017 30.03 846 24.98 6.4 43.6 67 0.7 33.3 0
09:31 1017 30.03 846 24.98 6.5 43.7 67 0.8 33.5 0
09:32 1017 30.03 846 24.98 6.7 44 69 1.4 34.4 0
09:33 1017 30.03 846 24.98 6.9 44.4 70 1.7 35.1 0
09:34 1017 30.03 846 24.98 7.1 44.8 68 1.6 34.8 0
09:35 1017 30.03 846 24.98 7.4 45.4 66 1.5 34.6 0
09:36 1017 30.03 846 24.98 7.5 45.6 66 1.6 34.8 0
09:37 1017 30.03 846 24.98 7.6 45.7 64 1.3 34.4 0
09:38 1017 30.03 846 24.98 7.6 45.7 66 1.7 35.1 0
09:39 1017 30.03 846 24.98 7.8 46 61 0.8 33.5 0
09:40 1017 30.03 846 24.98 8.2 46.7 61 1.1 34 0
09:41 1017 30.03 846 24.98 8.5 47.4 59 1 33.9 0
09:42 1017 30.03 846 24.98 8.8 47.8 59 1.2 34.1 0
09:43 1017 30.03 846 24.98 8.9 47.9 57 0.8 33.5 0
09:44 1017 30.03 846 24.98 9 48.1 57 1 33.7 0
09:45 1017 30.03 846 24.98 9.1 48.3 57 1 33.8 0
09:46 1017 30.03 846 24.98 9.3 48.7 58 1.4 34.6 0
09:47 1017 30.03 846 24.98 9.5 49.1 61 2.3 36.2 0
09:48 1017 30.03 846 24.98 9.6 49.2 53 0.5 32.9 0
09:49 1017 30.03 846 24.98 9.7 49.5 55 1.1 34 0
09:50 1017 30.03 846 24.98 9.7 49.5 56 1.5 34.7 0
09:51 1017 30.03 846 24.98 9.8 49.6 55 1.2 34.2 0
09:52 1017 30.03 846 24.98 9.8 49.7 56 1.6 34.9 0
09:53 1017 30.03 846 24.98 9.9 49.8 56 1.5 34.8 0
09:54 1017 30.03 846 24.98 9.9 49.9 55 1.4 34.4 0
09:55 1017 30.03 846 24.98 9.9 49.9 53 0.8 33.5 0
09:56 1017 30.03 846 24.98 10 49.9 53 1 33.8 0
09:57 1017 30.03 846 24.98 9.9 49.9 54 1.1 33.9 0
09:58 1016 30 846 24.98 9.9 49.8 54 1.1 33.9 0
09:59 1016 30 846 24.98 9.7 49.5 55 1.2 34.2 0
10:00 1017 30.03 846 24.98 9.6 49.3 56 1.2 34.1 0
10:01 1016 30 846 24.98 9.5 49.1 56 1.3 34.3 0
10:02 1016 30 846 24.98 9.4 48.8 56 1.1 33.9 0
10:03 1016 30 846 24.98 9.3 48.7 56 1 33.9 0
10:04 1016 30 846 24.98 9.3 48.8 57 1.2 34.2 0
10:05 1017 30.03 846 24.98 9.5 49.1 52 0.1 32.3 0
10:06 1017 30.03 846 24.98 9.8 49.6 53 0.6 33.2 0
10:07 1017 30.03 846 24.98 10 50 54 1.1 34 0
10:08 1016 30 846 24.98 10 50.1 54 1.1 34 0
10:09 1017 30.03 846 24.98 10.2 50.3 55 1.5 34.7 0
10:10 1017 30.03 846 24.98 10.3 50.6 52 0.9 33.6 0
10:11 1017 30.03 846 24.98 10.5 50.9 49 0.4 32.7 0
10:12 1017 30.03 846 24.98 10.6 51 52 1.2 34.2 0
10:13 1017 30.03 846 24.98 10.5 50.9 54 1.7 35 0
10:14 1017 30.03 846 24.98 10.5 51 52 1.2 34.2 0
10:15 1017 30.03 846 24.98 10.7 51.3 48 0.1 32.3 0
10:16 1017 30.03 846 24.98 10.9 51.7 49 0.8 33.4 0
10:17 1017 30.03 846 24.98 11 51.7 53 1.7 35.1 0
10:18 1017 30.03 846 24.98 11.1 51.9 49 0.7 33.2 0
10:19 1017 30.03 846 24.98 11.2 52.1 48 0.7 33.3 0
10:20 1017 30.03 846 24.98 11.3 52.3 48 0.8 33.4 0
10:21 1017 30.03 846 24.98 11.3 52.4 51 1.5 34.7 0
10:22 1017 30.03 846 24.98 11.3 52.3 52 1.8 35.2 0
10:23 1017 30.03 846 24.98 11.2 52.2 47 0.5 32.8 0
10:24 1017 30.03 846 24.98 11.2 52.2 49 0.9 33.6 0
10:25 1016 30 846 24.98 11.2 52.2 47 0.4 32.7 0
10:26 1016 30 846 24.98 11.2 52.1 48 0.7 33.2 0
10:27 1016 30 846 24.98 11.2 52.1 47 0.2 32.4 0
10:28 1016 30 846 24.98 11.2 52.2 49 0.8 33.5 0
10:29 1016 30 846 24.98 11.2 52.1 51 1.4 34.6 0
10:30 1016 30 846 24.98 11.1 52 53 1.9 35.4 0
10:31 1016 30 846 24.98 11.2 52.1 49 1.1 33.9 0
10:32 1016 30 846 24.98 11.2 52.2 49 0.9 33.6 0
10:33 1016 30 846 24.98 11.4 52.4 46 0.3 32.6 0
10:34 1016 30 846 24.98 11.4 52.5 47 0.5 32.9 0
10:35 1016 30 846 24.98 11.5 52.7 46 0.4 32.7 0
10:36 1016 30 846 24.98 11.5 52.7 46 0.4 32.7 0
10:37 1016 30 846 24.98 11.4 52.6 47 0.7 33.3 0
10:38 1016 30 846 24.98 11.3 52.4 47 0.3 32.6 0
10:39 1016 30 846 24.98 11.3 52.4 48 0.8 33.5 0
10:40 1016 30 846 24.98 11.3 52.4 46 0.2 32.4 0
10:41 1016 30 846 24.98 11.3 52.4 43 -0.8 30.5 0
10:42 1016 30 846 24.98 11.4 52.4 43 -0.7 30.7 0
10:43 1016 30 846 24.98 11.4 52.5 43 -0.7 30.8 0
10:44 1016 30 846 24.98 11.5 52.6 42 -0.9 30.3 0
10:45 1016 30 846 24.98 11.6 52.8 44 -0.3 31.5 0
10:46 1016 30 846 24.98 11.6 52.8 42 -0.8 30.6 0
10:47 1016 30 846 24.98 11.6 52.8 41 -1.3 29.7 0
10:48 1016 30 846 24.98 11.7 53 41 -1.2 29.8 0
10:49 1016 30 846 24.98 11.7 53 44 -0 32 0
10:50 1016 30 846 24.98 11.5 52.8 48 1 33.9 0
10:51 1016 30 845 24.95 11.4 52.5 50 1.3 34.3 0
10:52 1016 30 845 24.95 11.3 52.4 48 0.7 33.3 0
10:53 1016 30 845 24.95 11.3 52.4 49 1.1 34 0
10:54 1016 30 845 24.95 11.4 52.6 46 0.4 32.7 0
10:55 1016 30 845 24.95 11.5 52.6 50 1.6 34.8 0
10:56 1016 30 845 24.95 11.4 52.4 44 -0.3 31.4 0
10:57 1016 30 845 24.95 11.4 52.6 46 0.4 32.7 0
10:58 1016 30 845 24.95 11.4 52.5 47 0.7 33.2 0
10:59 1016 30 845 24.95 11.3 52.3 48 0.8 33.5 0
11:00 1016 30 845 24.95 11.2 52.2 48 0.6 33 0
11:01 1016 30 845 24.95 11.3 52.4 43 -0.7 30.8 0
11:02 1016 30 845 24.95 11.5 52.6 48 0.9 33.6 0
11:03 1016 30 845 24.95 11.4 52.4 45 -0.2 31.7 0
11:04 1016 30 845 24.95 11.4 52.6 40 -1.7 29 0
11:05 1016 30 845 24.95 11.6 52.8 44 -0.1 31.8 0
11:06 1016 30 845 24.95 11.6 52.8 43 -0.5 31.2 0
11:07 1016 30 845 24.95 11.6 53 44 -0.3 31.5 0
11:08 1016 30 846 24.98 11.7 53 46 0.4 32.7 0
11:09 1016 30 846 24.98 11.8 53.3 45 0.4 32.8 0
11:10 1016 30 845 24.95 11.9 53.5 44 0.1 32.1 0
11:11 1016 30 845 24.95 12 53.6 40 -1.1 29.9 0
11:12 1016 30 845 24.95 12 53.5 45 0.5 32.9 0
11:13 1016 30 845 24.95 11.7 53.1 44 -0.1 31.8 0
11:14 1016 30 845 24.95 11.7 53 41 -1 30.2 0
11:15 1016 30 845 24.95 11.7 53 45 0.1 32.2 0
11:16 1016 30 845 24.95 11.7 53.1 43 -0.3 31.4 0
11:17 1016 30 845 24.95 11.7 53 44 -0 31.9 0
11:18 1016 30 845 24.95 11.7 53.1 43 -0.3 31.4 0
11:19 1016 30 845 24.95 11.8 53.2 42 -0.5 31 0
11:20 1016 30 845 24.95 11.8 53.3 48 1.2 34.2 0
11:21 1016 30 845 24.95 11.8 53.2 48 1.1 34.1 0
11:22 1016 30 845 24.95 11.8 53.3 46 0.8 33.4 0
11:23 1016 30 845 24.95 11.9 53.4 44 0.2 32.3 0
11:24 1016 30 845 24.95 12 53.5 43 -0.1 31.9 0
11:25 1016 30 845 24.95 12.1 53.7 41 -0.8 30.6 0
11:26 1016 30 845 24.95 12.1 53.8 43 -0.1 31.8 0
11:27 1016 30 845 24.95 12.2 53.9 43 0.1 32.2 0
11:28 1016 30 845 24.95 12.1 53.8 40 -1 30.3 0
11:29 1016 30 845 24.95 12.2 53.9 44 0.3 32.5 0
11:30 1016 30 845 24.95 12.3 54.1 47 1.4 34.5 0
11:31 1016 30 845 24.95 12.4 54.3 44 0.5 32.9 0
11:32 1016 30 845 24.95 12.5 54.5 42 0.1 32.1 0
11:33 1016 30 845 24.95 12.6 54.7 40 -0.7 30.7 0
11:34 1016 30 845 24.95 12.7 54.9 38 -1 30.2 0
11:35 1016 30 845 24.95 12.7 54.9 46 1.5 34.7 0
11:36 1016 30 845 24.95 12.8 55 41 -0.2 31.6 0
11:37 1016 30 845 24.95 12.8 55 43 0.5 33 0
11:38 1016 30 845 24.95 12.7 54.8 39 -0.8 30.6 0
11:39 1016 30 845 24.95 12.7 54.8 39 -0.9 30.4 0
11:40 1016 30 845 24.95 12.6 54.7 41 -0.3 31.4 0
11:41 1016 30 845 24.95 12.7 54.8 40 -0.6 31 0
11:42 1016 30 845 24.95 12.6 54.7 41 -0.2 31.7 0
11:43 1016 30 845 24.95 12.5 54.5 39 -1.1 30 0
11:44 1016 30 845 24.95 12.4 54.2 40 -0.9 30.4 0
11:45 1016 30 845 24.95 12.3 54.2 40 -0.8 30.6 0
11:46 1016 30 845 24.95 12.3 54.1 39 -1.1 30.1 0
11:47 1016 30 845 24.95 12.3 54.2 42 -0.2 31.6 0
11:48 1016 30 845 24.95 12.4 54.4 44 0.7 33.3 0
11:49 1016 30 845 24.95 12.6 54.6 41 -0.2 31.7 0
11:50 1016 30 845 24.95 12.7 54.9 43 0.5 32.8 0
11:51 1016 30 845 24.95 12.9 55.2 39 -0.7 30.8 0
11:52 1016 30 845 24.95 13 55.3 39 -0.6 30.9 0
11:53 1016 30 845 24.95 13 55.3 40 -0.1 31.7 0
11:54 1016 30 845 24.95 13 55.5 41 0.1 32.2 0
11:55 1016 30 845 24.95 12.9 55.3 41 -0 31.9 0
11:56 1016 30 845 24.95 12.9 55.2 39 -0.6 30.9 0
11:57 1016 30 845 24.95 12.9 55.3 38 -1 30.1 0
11:58 1016 30 845 24.95 12.8 55 42 0.1 32.2 0
11:59 1016 30 845 24.95 12.6 54.7 38 -1.4 29.5 0
12:00 1016 30 845 24.95 12.7 54.8 38 -1.1 30 0
12:01 1015 29.97 845 24.95 12.5 54.5 45 0.9 33.7 0
12:02 1016 30 845 24.95 11.9 53.4 49 1.6 34.9 0
12:03 1016 30 845 24.95 11.2 52.1 51 1.5 34.8 0
12:04 1016 30 845 24.95 10.7 51.3 54 1.9 35.4 0
12:05 1016 30 845 24.95 10.6 51 56 2.1 35.8 0
12:06 1016 30 845 24.95 10.3 50.6 57 2.4 36.2 0
12:07 1016 30 845 24.95 10 50.1 56 1.6 34.9 0
12:08 1016 30 845 24.95 9.8 49.6 57 1.8 35.2 0
12:09 1016 30 845 24.95 9.5 49.1 59 1.9 35.4 0
12:10 1016 30 845 24.95 9.3 48.7 62 2.3 36.2 0
12:11 1016 30 845 24.95 9.1 48.4 62 2.2 35.9 0
12:12 1016 30 845 24.95 9 48.2 61 1.8 35.2 0
12:13 1016 30 845 24.95 8.9 48 62 2 35.6 0
12:14 1016 30 845 24.95 8.8 47.9 61 1.7 35 0
12:15 1016 30 845 24.95 8.8 47.8 61 1.6 34.8 0
12:16 1016 30 845 24.95 8.8 47.8 61 1.7 35 0
12:17 1016 30 845 24.95 8.7 47.7 61 1.8 35.2 0
12:18 1016 30 845 24.95 8.6 47.5 62 1.7 35.1 0
12:19 1016 30 845 24.95 8.6 47.4 63 2 35.6 0
12:20 1016 30 845 24.95 8.5 47.3 63 1.8 35.3 0
12:21 1016 30 845 24.95 8.4 47.2 62 1.5 34.7 0
12:22 1016 30 845 24.95 8.4 47.1 60 1.2 34.2 0
12:23 1016 30 845 24.95 8.3 47 62 1.6 34.8 0
12:24 1016 30 845 24.95 8.3 47 63 1.8 35.2 0
12:25 1016 30 845 24.95 8.3 46.9 64 1.9 35.4 0
12:26 1016 30 845 24.95 8.3 46.9 66 2.2 36 0
12:27 1016 30 845 24.95 8.3 46.9 65 2.2 36 0
12:28 1016 30 845 24.95 8.3 46.9 64 2 35.5 0
12:29 1016 30 845 24.95 8.3 46.9 63 1.8 35.2 0
12:30 1016 30 845 24.95 8.3 46.9 65 2.2 35.9 0
12:31 1016 30 845 24.95 8.3 47 68 2.7 36.9 0
12:32 1016 30 846 24.98 8.3 47 67 2.5 36.5 0
12:33 1016 30 845 24.95 8.4 47.1 64 1.9 35.4 0
12:34 1016 30 845 24.95 8.4 47 64 2.1 35.7 0
12:35 1016 30 845 24.95 8.3 47 64 2 35.6 0
12:36 1016 30 845 24.95 8.2 46.8 63 1.7 35.1 0
12:37 1016 30 845 24.95 8.1 46.7 63 1.6 35 0
12:38 1016 30 845 24.95 8.1 46.6 66 2.2 35.9 0
12:39 1016 30 845 24.95 8.1 46.6 64 1.8 35.2 0
12:40 1016 30 845 24.95 8.1 46.6 65 1.9 35.4 0
12:41 1016 30 845 24.95 8.1 46.5 64 1.8 35.2 0
12:42 1016 30 845 24.95 8.1 46.5 66 2.2 35.9 0
12:43 1016 30 845 24.95 8.1 46.5 66 2.1 35.9 0
12:44 1016 30 845 24.95 8.1 46.5 68 2.4 36.4 0
12:45 1016 30 845 24.95 8.1 46.5 67 2.3 36.2 0
12:46 1016 30 845 24.95 8.1 46.7 65 1.9 35.4 0
12:47 1016 30 845 24.95 8.2 46.7 67 2.4 36.2 0
12:48 1016 30 845 24.95 8.2 46.7 67 2.5 36.5 0
12:49 1016 30 845 24.95 8.2 46.7 65 1.9 35.5 0
12:50 1016 30 845 24.95 8.2 46.7 64 1.8 35.3 0
12:51 1016 30 845 24.95 8.2 46.8 65 2.1 35.8 0
12:52 1016 30 845 24.95 8.2 46.8 65 2 35.6 0
12:53 1016 30 845 24.95 8.2 46.8 65 2.1 35.8 0
12:54 1016 30 845 24.95 8.2 46.8 64 1.9 35.5 0
12:55 1016 30 846 24.98 8.3 46.9 65 2 35.7 0
12:56 1016 30 846 24.98 8.3 46.9 65 2 35.6 0
12:57 1016 30 846 24.98 8.2 46.8 65 2.1 35.8 0
12:58 1016 30 846 24.98 8.3 46.9 65 2.2 35.9 0
12:59 1016 30 846 24.98 8.2 46.8 66 2.2 36 0
13:00 1016 30 846 24.98 8.2 46.7 66 2.3 36.1 0
13:01 1016 30 846 24.98 8.2 46.7 66 2.2 35.9 0
13:02 1016 30 846 24.98 8.2 46.7 67 2.4 36.3 0
13:03 1016 30 846 24.98 8.1 46.7 67 2.4 36.3 0
13:04 1016 30 846 24.98 8.2 46.7 68 2.7 36.8 0
13:05 1016 30 846 24.98 8.2 46.7 68 2.7 36.8 0
13:06 1016 30 846 24.98 8.2 46.7 66 2.3 36.1 0
13:07 1016 30 846 24.98 8.2 46.8 67 2.5 36.6 0
13:08 1016 30 846 24.98 8.2 46.8 68 2.7 36.9 0
13:09 1016 30 846 24.98 8.2 46.8 69 2.9 37.2 0
13:10 1016 30 846 24.98 8.2 46.8 68 2.6 36.7 0
13:11 1016 30 846 24.98 8.3 46.9 67 2.5 36.6 0
13:12 1016 30 846 24.98 8.4 47 66 2.5 36.4 0
13:13 1016 30 846 24.98 8.4 47.1 67 2.7 36.8 0
13:14 1016 30 846 24.98 8.5 47.2 64 2 35.5 0
13:15 1016 30 846 24.98 8.5 47.3 64 2.2 36 0
13:16 1016 30 846 24.98 8.6 47.4 63 2 35.6 0
13:17 1016 30 846 24.98 8.6 47.4 66 2.5 36.6 0
13:18 1016 30 846 24.98 8.6 47.5 63 2 35.5 0
13:19 1016 30 846 24.98 8.7 47.6 62 1.7 35.1 0
13:20 1016 30 846 24.98 8.7 47.7 65 2.5 36.6 0
13:21 1017 30.03 846 24.98 8.7 47.7 65 2.5 36.4 0
13:22 1017 30.03 846 24.98 8.8 47.8 63 2.2 36 0
13:23 1017 30.03 846 24.98 8.8 47.8 64 2.4 36.3 0
13:24 1016 30 846 24.98 8.8 47.9 67 3 37.4 0
13:25 1016 30 846 24.98 8.9 48 62 2.1 35.8 0
13:26 1016 30 846 24.98 8.9 48 64 2.4 36.3 0
13:27 1016 30 846 24.98 8.9 48 61 1.9 35.3 0
13:28 1016 30 846 24.98 8.8 47.8 61 1.7 35.1 0
13:29 1016 30 846 24.98 8.8 47.9 63 2.1 35.8 0
13:30 1016 30 846 24.98 8.9 47.9 64 2.4 36.2 0
13:31 1016 30 846 24.98 8.8 47.9 64 2.3 36.2 0
13:32 1016 30 846 24.98 8.9 48 62 2.1 35.8 0
13:33 1016 30 846 24.98 8.9 48 63 2.3 36.2 0
13:34 1016 30 846 24.98 8.9 48.1 63 2.2 36 0
13:35 1016 30 846 24.98 8.9 48.1 62 2 35.6 0
13:36 1016 30 846 24.98 8.9 48.1 60 1.7 35 0
13:37 1016 30 846 24.98 9 48.1 61 2 35.5 0
13:38 1016 30 846 24.98 9 48.2 64 2.5 36.5 0
13:39 1016 30 846 24.98 9 48.3 64 2.6 36.6 0
13:40 1016 30 845 24.95 9.1 48.3 64 2.5 36.6 0
13:41 1016 30 845 24.95 9.1 48.4 62 2.4 36.2 0
13:42 1016 30 845 24.95 9.1 48.5 59 1.7 35 0
13:43 1016 30 845 24.95 9.1 48.4 59 1.6 35 0
13:44 1016 30 845 24.95 9.2 48.5 60 1.8 35.3 0
13:45 1016 30 845 24.95 9.2 48.6 58 1.5 34.8 0
13:46 1016 30 845 24.95 9.3 48.7 58 1.5 34.6 0
13:47 1016 30 845 24.95 9.3 48.8 60 1.9 35.5 0
13:48 1016 30 845 24.95 9.4 48.9 58 1.5 34.8 0
13:49 1016 30 845 24.95 9.5 49 61 2.3 36.1 0
13:50 1016 30 845 24.95 9.5 49.1 60 2.3 36.1 0
13:51 1016 30 845 24.95 9.5 49.1 57 1.4 34.6 0
13:52 1016 30 845 24.95 9.5 49.1 57 1.5 34.6 0
13:53 1016 30 845 24.95 9.5 49.1 62 2.7 36.8 0
13:54 1016 30 845 24.95 9.6 49.3 59 2.1 35.7 0
13:55 1016 30 845 24.95 9.8 49.7 63 3.2 37.7 0
13:56 1016 30 845 24.95 10 50 59 2.4 36.4 0
13:57 1016 30 845 24.95 10.1 50.1 56 1.6 34.9 0
13:58 1016 30 845 24.95 10.1 50.1 56 1.7 35.1 0
13:59 1016 30 845 24.95 10 49.9 59 2.3 36.2 0
14:00 1016 30 845 24.95 9.9 49.8 62 3.1 37.5 0
14:01 1016 30 845 24.95 9.8 49.6 61 2.7 36.8 0
14:02 1016 30 845 24.95 9.6 49.3 60 2.2 36 0
14:03 1016 30 845 24.95 9.5 49 61 2.4 36.4 0
14:04 1016 30 845 24.95 9.4 48.8 64 2.8 37.1 0
14:05 1016 30 845 24.95 9.3 48.8 64 2.9 37.2 0
14:06 1016 30 845 24.95 9.3 48.7 61 2.2 36 0
14:07 1016 30 845 24.95 9.2 48.5 62 2.4 36.2 0
14:08 1016 30 845 24.95 9.2 48.5 62 2.4 36.3 0
14:09 1016 30 845 24.95 9.1 48.4 62 2.3 36.1 0
14:10 1016 30 845 24.95 9.1 48.3 62 2.2 36 0
14:11 1016 30 845 24.95 9.1 48.4 65 2.9 37.3 0
14:12 1016 30 845 24.95 9.1 48.3 60 1.8 35.2 0
14:13 1016 30 845 24.95 9.1 48.4 62 2.2 35.9 0
14:14 1016 30 845 24.95 9.1 48.5 63 2.4 36.4 0
14:15 1016 30 845 24.95 9.2 48.5 59 1.6 34.9 0
14:16 1016 30 845 24.95 9.3 48.8 62 2.5 36.5 0
14:17 1016 30 845 24.95 9.5 49 61 2.3 36.2 0
14:18 1016 30 845 24.95 9.6 49.3 65 3.4 38 0
14:19 1016 30 845 24.95 9.7 49.4 61 2.5 36.5 0
14:20 1016 30 845 24.95 9.7 49.5 57 1.7 35 0
14:21 1016 30 845 24.95 9.7 49.5 59 2.1 35.7 0
14:22 1016 30 845 24.95 9.7 49.5 63 3.2 37.7 0
14:23 1016 30 845 24.95 9.8 49.6 61 2.6 36.7 0
14:24 1016 30 845 24.95 9.9 49.7 59 2.3 36.1 0
14:25 1016 30 845 24.95 10 50 58 2.1 35.8 0
14:26 1016 30 845 24.95 10.1 50.2 60 2.8 37.1 0
14:27 1016 30 845 24.95 10.2 50.4 54 1.3 34.4 0
14:28 1016 30 845 24.95 10.3 50.5 52 1 33.7 0
14:29 1016 30 845 24.95 10.2 50.4 53 1.2 34.1 0
14:30 1016 30 845 24.95 10.3 50.6 53 1.1 34 0
14:31 1016 30 845 24.95 10.3 50.6 56 1.9 35.5 0
14:32 1016 30 845 24.95 10.5 51 54 1.8 35.2 0
14:33 1016 30 845 24.95 10.7 51.3 54 1.9 35.5 0
14:34 1016 30 845 24.95 10.9 51.6 55 2.2 36 0
14:35 1016 30 845 24.95 11 51.7 53 1.7 35.1 0
14:36 1016 30 845 24.95 11 51.8 53 1.9 35.5 0
14:37 1016 30 845 24.95 11.1 51.9 53 2 35.7 0
14:38 1016 30 845 24.95 11.1 51.9 51 1.5 34.7 0
14:39 1016 30 845 24.95 11.1 51.9 60 3.6 38.6 0
14:40 1016 30 845 24.95 11.2 52.1 56 2.9 37.2 0
14:41 1016 30 845 24.95 11.2 52.2 51 1.6 34.8 0
14:42 1016 30 845 24.95 11.1 52 51 1.3 34.4 0
14:43 1016 30 845 24.95 11 51.8 51 1.3 34.3 0
14:44 1016 30 845 24.95 11 51.7 50 0.9 33.6 0
14:45 1016 30 845 24.95 10.8 51.5 49 0.5 32.9 0
14:46 1016 30 845 24.95 10.7 51.3 46 -0.3 31.4 0
14:47 1016 30 845 24.95 10.7 51.3 47 0 32.1 0
14:48 1016 30 845 24.95 10.8 51.4 49 0.5 32.9 0
14:49 1016 30 845 24.95 10.9 51.5 48 0.2 32.4 0
14:50 1016 30 845 24.95 11 51.7 49 0.7 33.3 0
14:51 1016 30 845 24.95 11 51.8 48 0.4 32.7 0
14:52 1016 30 845 24.95 11 51.8 47 0.3 32.5 0
14:53 1016 30 845 24.95 10.9 51.6 51 1.2 34.1 0
14:54 1016 30 845 24.95 10.9 51.7 48 0.5 33 0
14:55 1016 30 845 24.95 11.1 51.9 45 -0.2 31.6 0
14:56 1016 30 845 24.95 11.1 52 48 0.5 32.8 0
14:57 1016 30 845 24.95 11.2 52.1 51 1.3 34.4 0
14:58 1016 30 845 24.95 11.2 52.1 47 0.3 32.6 0
14:59 1016 30 845 24.95 11.1 52 46 -0.1 31.8 0
15:00 1016 30 845 24.95 11.1 52.1 47 0.4 32.7 0
15:01 1016 30 845 24.95 11.1 52 49 0.8 33.4 0
15:02 1016 30 845 24.95 11.1 52 48 0.5 32.9 0
15:03 1015 29.97 845 24.95 11.1 51.9 47 0.3 32.6 0
15:04 1015 29.97 845 24.95 11.1 51.9 48 0.6 33.1 0
15:05 1015 29.97 845 24.95 11.1 52 48 0.6 33.1 0
15:06 1015 29.97 845 24.95 11.2 52.1 54 2.2 36 0
15:07 1015 29.97 845 24.95 11.3 52.3 49 1.1 34 0
15:08 1015 29.97 845 24.95 11.3 52.3 49 1.1 34 0
15:09 1015 29.97 845 24.95 11.2 52.1 52 1.7 35.1 0
15:10 1015 29.97 845 24.95 11.1 51.9 52 1.7 35 0
15:11 1015 29.97 845 24.95 11 51.8 51 1.4 34.6 0
15:12 1015 29.97 845 24.95 11 51.7 49 0.7 33.3 0
15:13 1015 29.97 845 24.95 10.9 51.5 47 0 32.1 0
15:14 1015 29.97 845 24.95 10.8 51.5 52 1.3 34.3 0
15:15 1015 29.97 845 24.95 10.8 51.4 50 0.9 33.6 0
15:16 1015 29.97 845 24.95 10.7 51.3 52 1.3 34.3 0
15:17 1015 29.97 845 24.95 10.6 51.1 51 0.9 33.7 0
15:18 1015 29.97 845 24.95 10.6 51.1 54 1.6 34.9 0
15:19 1015 29.97 845 24.95 10.6 51.1 52 1.3 34.4 0
15:20 1015 29.97 845 24.95 10.7 51.2 56 2.3 36.1 0
15:21 1015 29.97 845 24.95 10.8 51.5 54 2 35.5 0
15:22 1015 29.97 845 24.95 11 51.8 53 1.8 35.3 0
15:23 1015 29.97 845 24.95 11.1 51.9 49 0.8 33.4 0
15:24 1015 29.97 845 24.95 11.1 51.9 50 1 33.8 0
15:25 1015 29.97 845 24.95 11 51.8 50 1 33.8 0
15:26 1015 29.97 845 24.95 11 51.7 49 0.7 33.2 0
15:27 1015 29.97 845 24.95 10.9 51.7 50 1.1 34 0
15:28 1015 29.97 845 24.95 11 51.9 46 -0.2 31.6 0
15:29 1015 29.97 845 24.95 11.2 52.2 47 0.5 32.9 0
15:30 1015 29.97 845 24.95 11.4 52.5 47 0.6 33.1 0
15:31 1015 29.97 845 24.95 11.4 52.4 50 1.5 34.7 0
15:32 1015 29.97 845 24.95 11.4 52.4 46 0.1 32.2 0
15:33 1015 29.97 845 24.95 11.4 52.5 47 0.5 32.9 0
15:34 1015 29.97 844 24.92 11.5 52.7 50 1.6 34.9 0
15:35 1015 29.97 844 24.92 11.5 52.7 51 1.8 35.3 0
15:36 1015 29.97 844 24.92 11.4 52.5 47 0.4 32.7 0
15:37 1015 29.97 844 24.92 11.4 52.5 49 1.1 34 0
15:38 1015 29.97 844 24.92 11.4 52.4 49 1.1 33.9 0
15:39 1015 29.97 844 24.92 11.4 52.5 50 1.4 34.6 0
15:40 1015 29.97 844 24.92 11.6 52.8 46 0.4 32.6 0
15:41 1015 29.97 844 24.92 11.7 53 45 0.3 32.5 0
15:42 1015 29.97 844 24.92 11.6 52.8 45 0.2 32.4 0
15:43 1015 29.97 844 24.92 11.5 52.7 47 0.6 33.1 0
15:44 1015 29.97 844 24.92 11.4 52.6 45 -0.1 31.8 0
15:45 1015 29.97 844 24.92 11.4 52.4 47 0.4 32.7 0
15:46 1015 29.97 844 24.92 11.4 52.5 46 0.1 32.2 0
15:47 1015 29.97 844 24.92 11.4 52.6 46 0.2 32.4 0
15:48 1015 29.97 844 24.92 11.5 52.6 47 0.5 32.9 0
15:49 1015 29.97 844 24.92 11.3 52.4 45 -0.2 31.7 0
15:50 1015 29.97 844 24.92 11.3 52.3 47 0.4 32.7 0
15:51 1015 29.97 844 24.92 11.3 52.4 45 0 32 0
15:52 1015 29.97 844 24.92 11.3 52.3 50 1.2 34.2 0
15:53 1015 29.97 844 24.92 11.2 52.2 45 -0.4 31.3 0
15:54 1015 29.97 844 24.92 11.2 52.1 45 -0.3 31.4 0
15:55 1015 29.97 844 24.92 11.1 51.9 46 0.1 32.1 0
15:56 1015 29.97 844 24.92 11 51.9 45 -0.3 31.5 0
15:57 1015 29.97 844 24.92 11 51.7 45 -0.6 31 0
15:58 1015 29.97 844 24.92 11 51.9 45 -0.3 31.5 0
15:59 1015 29.97 844 24.92 11.2 52.2 45 -0.2 31.6 0
16:00 1015 29.97 844 24.92 11.4 52.6 44 -0.3 31.5 0
16:01 1015 29.97 844 24.92 11.5 52.7 44 -0.1 31.8 0
16:02 1015 29.97 844 24.92 11.5 52.8 46 0.3 32.5 0
16:03 1015 29.97 844 24.92 11.6 52.9 42 -0.9 30.4 0
16:04 1015 29.97 844 24.92 11.6 52.8 46 0.3 32.6 0
16:05 1015 29.97 844 24.92 11.7 53 48 1.1 34 0
16:06 1015 29.97 844 24.92 11.9 53.3 44 0 32 0
16:07 1015 29.97 844 24.92 11.9 53.4 43 -0.2 31.7 0
16:08 1015 29.97 844 24.92 11.9 53.4 43 -0.2 31.7 0
16:09 1015 29.97 844 24.92 11.8 53.2 41 -0.8 30.5 0
16:10 1015 29.97 844 24.92 11.7 53 43 -0.4 31.2 0
16:11 1015 29.97 844 24.92 11.7 53 48 1.1 34 0
16:12 1015 29.97 844 24.92 11.9 53.4 47 0.9 33.7 0
16:13 1015 29.97 844 24.92 12.1 53.7 45 0.6 33 0
16:14 1015 29.97 844 24.92 12.2 53.9 46 1 33.7 0
16:15 1015 29.97 844 24.92 12.3 54.2 44 0.4 32.7 0
16:16 1015 29.97 844 24.92 12.3 54.2 42 -0.2 31.7 0
16:17 1015 29.97 844 24.92 12.3 54.1 42 -0.2 31.7 0
16:18 1015 29.97 844 24.92 12.3 54.1 45 0.7 33.3 0
16:19 1015 29.97 844 24.92 12.3 54.1 45 0.7 33.3 0
16:20 1015 29.97 844 24.92 12.3 54.1 44 0.5 33 0
16:21 1015 29.97 844 24.92 12.3 54.2 42 -0 32 0
16:22 1015 29.97 844 24.92 12.3 54.1 39 -1.3 29.7 0
16:23 1015 29.97 844 24.92 12.1 53.9 43 0 32.1 0
16:24 1015 29.97 844 24.92 12 53.7 45 0.6 33.2 0
16:25 1015 29.97 844 24.92 12 53.7 44 0.3 32.6 0
16:26 1015 29.97 844 24.92 11.9 53.5 46 0.8 33.4 0
16:27 1015 29.97 844 24.92 11.9 53.5 45 0.6 33.1 0
16:28 1015 29.97 844 24.92 11.9 53.4 39 -1.4 29.5 0
16:29 1015 29.97 844 24.92 11.9 53.3 43 -0.4 31.3 0
16:30 1015 29.97 844 24.92 11.8 53.2 41 -0.9 30.4 0
16:31 1015 29.97 844 24.92 11.7 53.1 41 -1.1 30 0
16:32 1015 29.97 844 24.92 11.7 53 42 -0.9 30.4 0
16:33 1015 29.97 844 24.92 11.6 52.9 42 -0.8 30.6 0
16:34 1015 29.97 844 24.92 11.7 53 43 -0.4 31.2 0
16:35 1015 29.97 844 24.92 11.8 53.2 41 -0.9 30.4 0
16:36 1015 29.97 844 24.92 11.8 53.3 44 -0 31.9 0
16:37 1015 29.97 844 24.92 11.9 53.4 45 0.4 32.7 0
16:38 1015 29.97 844 24.92 11.9 53.4 40 -1.2 29.9 0
16:39 1015 29.97 844 24.92 11.9 53.4 41 -1 30.1 0
16:40 1015 29.97 844 24.92 11.9 53.3 46 0.6 33.1 0
16:41 1015 29.97 844 24.92 11.9 53.4 43 -0.4 31.4 0
16:42 1015 29.97 844 24.92 11.9 53.4 46 0.6 33.2 0
16:43 1015 29.97 844 24.92 11.9 53.4 44 -0 31.9 0
16:44 1015 29.97 844 24.92 11.9 53.4 44 0.1 32.3 0
16:45 1015 29.97 844 24.92 11.9 53.4 42 -0.7 30.8 0
16:46 1015 29.97 844 24.92 11.8 53.2 44 -0.2 31.7 0
16:47 1015 29.97 844 24.92 11.7 53.1 43 -0.3 31.5 0
16:48 1015 29.97 844 24.92 11.8 53.2 46 0.7 33.3 0
16:49 1015 29.97 844 24.92 11.8 53.2 43 -0.4 31.3 0
16:50 1015 29.97 844 24.92 11.7 53.1 40 -1.4 29.4 0
16:51 1015 29.97 844 24.92 11.6 52.8 42 -1 30.2 0
16:52 1015 29.97 844 24.92 11.5 52.8 40 -1.7 29 0
16:53 1015 29.97 845 24.95 11.5 52.6 43 -0.7 30.7 0
16:54 1015 29.97 845 24.95 11.4 52.5 40 -1.6 29.1 0
16:55 1015 29.97 844 24.92 11.4 52.5 43 -0.8 30.6 0
16:56 1015 29.97 844 24.92 11.5 52.6 44 -0.4 31.3 0
16:57 1015 29.97 845 24.95 11.6 52.9 41 -1.1 30 0
16:58 1015 29.97 845 24.95 11.7 53.1 44 -0.2 31.6 0
16:59 1015 29.97 844 24.92 11.8 53.3 48 1.2 34.1 0
17:00 1015 29.97 844 24.92 11.9 53.5 40 -1.1 30.1 0
17:01 1015 29.97 844 24.92 11.8 53.2 40 -1.3 29.6 0
17:02 1015 29.97 844 24.92 11.7 53.1 41 -1.2 29.9 0
17:03 1015 29.97 844 24.92 11.7 53 42 -0.6 30.9 0
17:04 1015 29.97 844 24.92 11.6 52.8 43 -0.6 31 0
17:05 1015 29.97 844 24.92 11.5 52.7 45 -0.1 31.9 0
17:06 1015 29.97 844 24.92 11.5 52.8 45 -0 32 0
17:07 1015 29.97 844 24.92 11.6 52.8 44 -0.4 31.3 0
17:08 1015 29.97 844 24.92 11.6 52.9 46 0.4 32.8 0
17:09 1015 29.97 844 24.92 11.6 52.8 46 0.4 32.7 0
17:10 1015 29.97 844 24.92 11.5 52.8 47 0.8 33.4 0
17:11 1015 29.97 844 24.92 11.6 52.9 43 -0.6 30.9 0
17:12 1015 29.97 844 24.92 11.6 52.9 43 -0.6 31 0
17:13 1015 29.97 844 24.92 11.7 53 44 -0.1 31.8 0
17:14 1015 29.97 845 24.95 11.8 53.2 43 -0.3 31.5 0
17:15 1015 29.97 845 24.95 11.8 53.3 42 -0.7 30.8 0
17:16 1015 29.97 844 24.92 11.8 53.2 43 -0.4 31.2 0
17:17 1015 29.97 845 24.95 11.7 53.1 39 -1.9 28.7 0
17:18 1015 29.97 845 24.95 11.7 53 45 0.1 32.2 0
17:19 1015 29.97 845 24.95 11.7 53.1 43 -0.3 31.5 0
17:20 1015 29.97 844 24.92 11.6 52.9 43 -0.5 31.1 0
17:21 1015 29.97 844 24.92 11.5 52.8 43 -0.6 31 0
17:22 1015 29.97 844 24.92 11.4 52.5 42 -1.1 30 0
17:23 1015 29.97 844 24.92 11.4 52.5 43 -0.8 30.6 0
17:24 1015 29.97 844 24.92 11.3 52.4 44 -0.3 31.5 0
17:25 1015 29.97 844 24.92 11.3 52.4 45 -0.1 31.8 0
17:26 1015 29.97 844 24.92 11.3 52.3 44 -0.5 31.1 0
17:27 1015 29.97 844 24.92 11.3 52.4 45 -0.1 31.7 0
17:28 1015 29.97 844 24.92 11.3 52.3 44 -0.5 31.1 0
17:29 1015 29.97 844 24.92 11.3 52.4 44 -0.5 31 0
17:30 1015 29.97 844 24.92 11.3 52.4 48 0.6 33.1 0
17:31 1015 29.97 844 24.92 11.3 52.3 44 -0.5 31.1 0
17:32 1015 29.97 844 24.92 11.3 52.3 44 -0.5 31.2 0
17:33 1015 29.97 844 24.92 11.3 52.3 44 -0.5 31.1 0
17:34 1015 29.97 844 24.92 11.3 52.4 45 -0.2 31.6 0
17:35 1015 29.97 844 24.92 11.4 52.5 44 -0.3 31.5 0
17:36 1015 29.97 844 24.92 11.4 52.6 46 0.2 32.4 0
17:37 1015 29.97 844 24.92 11.5 52.6 43 -0.6 31 0
17:38 1015 29.97 844 24.92 11.5 52.7 42 -0.8 30.5 0
17:39 1015 29.97 844 24.92 11.5 52.7 44 -0.2 31.7 0
17:40 1015 29.97 844 24.92 11.5 52.7 43 -0.5 31.1 0
17:41 1015 29.97 844 24.92 11.5 52.7 41 -1.4 29.5 0
17:42 1015 29.97 844 24.92 11.6 52.8 42 -0.8 30.5 0
17:43 1015 29.97 844 24.92 11.5 52.8 44 -0.1 31.8 0
17:44 1015 29.97 844 24.92 11.5 52.7 43 -0.6 30.9 0
17:45 1015 29.97 844 24.92 11.4 52.5 46 0.2 32.3 0
17:46 1015 29.97 844 24.92 11.3 52.4 44 -0.6 31 0
17:47 1015 29.97 844 24.92 11.3 52.4 40 -1.7 29 0
17:48 1015 29.97 844 24.92 11.3 52.3 43 -0.7 30.8 0
17:49 1015 29.97 844 24.92 11.3 52.3 41 -1.6 29.1 0
17:50 1015 29.97 844 24.92 11.3 52.3 39 -2 28.4 0
17:51 1015 29.97 844 24.92 11.4 52.4 41 -1.3 29.7 0
17:52 1015 29.97 844 24.92 11.5 52.6 40 -1.5 29.3 0
17:53 1015 29.97 844 24.92 11.5 52.7 42 -0.8 30.6 0
17:54 1015 29.97 844 24.92 11.5 52.8 44 -0.3 31.5 0
17:55 1015 29.97 844 24.92 11.5 52.8 46 0.3 32.5 0
17:56 1015 29.97 844 24.92 11.5 52.7 42 -0.9 30.4 0
17:57 1015 29.97 844 24.92 11.5 52.6 41 -1.2 29.8 0
17:58 1015 29.97 844 24.92 11.4 52.5 41 -1.4 29.4 0
17:59 1015 29.97 845 24.95 11.2 52.2 42 -1 30.1 0
18:00 1015 29.97 845 24.95 11.1 51.9 44 -0.6 30.9 0
18:01 1015 29.97 845 24.95 10.9 51.7 45 -0.4 31.3 0
18:02 1015 29.97 845 24.95 10.9 51.5 43 -1.1 29.9 0
18:03 1015 29.97 845 24.95 10.8 51.5 41 -1.9 28.6 0
18:04 1015 29.97 845 24.95 10.9 51.5 41 -1.7 28.9 0
18:05 1015 29.97 845 24.95 10.8 51.5 40 -2.2 28 0
18:06 1015 29.97 845 24.95 10.8 51.4 42 -1.4 29.4 0
18:07 1015 29.97 845 24.95 10.8 51.4 41 -1.9 28.6 0
18:08 1015 29.97 845 24.95 10.7 51.2 39 -2.6 27.2 0
18:09 1015 29.97 845 24.95 10.7 51.2 41 -2 28.4 0
18:10 1015 29.97 845 24.95 10.7 51.2 42 -1.8 28.8 0
18:11 1015 29.97 845 24.95 10.6 51.1 40 -2.5 27.6 0
18:12 1015 29.97 845 24.95 10.6 51.1 42 -1.7 28.9 0
18:13 1015 29.97 845 24.95 10.6 51 42 -1.7 28.9 0
18:14 1015 29.97 845 24.95 10.5 50.9 42 -1.9 28.6 0
18:15 1015 29.97 845 24.95 10.5 50.9 43 -1.6 29.2 0
18:16 1015 29.97 845 24.95 10.4 50.8 44 -1.4 29.5 0
18:17 1015 29.97 845 24.95 10.4 50.7 43 -1.6 29 0
18:18 1015 29.97 845 24.95 10.4 50.6 43 -1.5 29.3 0
18:19 1015 29.97 845 24.95 10.4 50.7 41 -2.1 28.1 0
18:20 1015 29.97 845 24.95 10.4 50.8 43 -1.6 29.2 0
18:21 1015 29.97 845 24.95 10.4 50.7 40 -2.7 27.1 0
18:22 1015 29.97 845 24.95 10.4 50.6 42 -1.9 28.5 0
18:23 1015 29.97 845 24.95 10.3 50.6 38 -3.2 26.3 0
18:24 1015 29.97 845 24.95 10.4 50.7 38 -3.2 26.2 0
18:25 1015 29.97 845 24.95 10.3 50.5 42 -1.9 28.6 0
18:26 1015 29.97 845 24.95 10.2 50.3 38 -3.6 25.4 0
18:27 1015 29.97 845 24.95 10.2 50.3 39 -3 26.5 0
18:28 1015 29.97 845 24.95 10.2 50.3 38 -3.5 25.6 0
18:29 1015 29.97 845 24.95 10.2 50.3 36 -4.2 24.4 0
18:30 1016 30 845 24.95 10.2 50.4 40 -2.7 27.1 0
18:31 1016 30 845 24.95 10.2 50.3 38 -3.5 25.7 0
18:32 1015 29.97 845 24.95 10.2 50.3 41 -2.4 27.7 0
18:33 1015 29.97 845 24.95 10 50.1 42 -2.2 28 0
18:34 1016 30 845 24.95 10 49.9 39 -3.2 26.3 0
18:35 1016 30 845 24.95 10 49.9 39 -3.4 25.9 0
18:36 1016 30 845 24.95 10 50 41 -2.6 27.4 0
18:37 1016 30 845 24.95 10 50 41 -2.4 27.6 0
18:38 1016 30 845 24.95 10 50 41 -2.5 27.6 0
18:39 1016 30 845 24.95 10 49.9 44 -1.8 28.8 0
18:40 1016 30 845 24.95 9.9 49.8 44 -1.9 28.6 0
18:41 1016 30 845 24.95 9.8 49.7 43 -2.2 28 0
18:42 1016 30 845 24.95 9.8 49.6 40 -3.2 26.2 0
18:43 1016 30 845 24.95 9.8 49.7 36 -4.4 24.1 0
18:44 1016 30 845 24.95 9.9 49.9 38 -3.7 25.4 0
18:45 1016 30 845 24.95 9.9 49.8 40 -3.2 26.3 0
18:46 1016 30 845 24.95 9.8 49.6 36 -4.4 24 0
18:47 1016 30 845 24.95 9.8 49.6 38 -3.7 25.4 0
18:48 1016 30 845 24.95 9.7 49.5 36 -4.7 23.6 0
18:49 1016 30 845 24.95 9.7 49.5 40 -3.4 25.9 0
18:50 1016 30 845 24.95 9.6 49.4 40 -3.1 26.4 0
18:51 1016 30 845 24.95 9.6 49.3 36 -4.8 23.3 0
18:52 1016 30 845 24.95 9.6 49.4 38 -3.9 25 0
18:53 1016 30 845 24.95 9.5 49.2 40 -3.4 25.8 0
18:54 1016 30 845 24.95 9.4 48.9 37 -4.6 23.7 0
18:55 1016 30 845 24.95 9.4 48.9 37 -4.5 24 0
18:56 1016 30 845 24.95 9.3 48.8 38 -4.2 24.4 0
18:57 1016 30 845 24.95 9.3 48.7 37 -4.8 23.4 0
18:58 1016 30 845 24.95 9.2 48.6 39 -4.1 24.6 0
18:59 1016 30 845 24.95 9.2 48.5 37 -4.7 23.5 0
19:00 1016 30 845 24.95 9.1 48.5 38 -4.6 23.8 0
19:01 1016 30 845 24.95 9.1 48.4 39 -4.2 24.5 0
19:02 1016 30 845 24.95 9.1 48.3 39 -4 24.8 0
19:03 1016 30 845 24.95 9 48.1 40 -4 24.8 0
19:04 1016 30 845 24.95 8.8 47.9 41 -3.7 25.4 0
19:05 1016 30 845 24.95 8.7 47.7 38 -4.6 23.7 0
19:06 1016 30 845 24.95 8.8 47.8 38 -4.6 23.6 0
19:07 1016 30 845 24.95 8.8 47.9 39 -4.3 24.3 0
19:08 1016 30 845 24.95 8.8 47.9 40 -4.1 24.6 0
19:09 1016 30 845 24.95 8.7 47.7 40 -4.1 24.7 0
19:10 1016 30 845 24.95 8.7 47.6 40 -4.3 24.2 0
19:11 1016 30 845 24.95 8.6 47.5 41 -3.9 25 0
19:12 1016 30 845 24.95 8.6 47.5 41 -3.8 25.2 0
19:13 1016 30 845 24.95 8.6 47.4 41 -3.9 24.9 0
19:14 1016 30 845 24.95 8.5 47.2 39 -4.7 23.5 0
19:15 1016 30 845 24.95 8.5 47.2 40 -4.5 23.9 0
19:16 1016 30 845 24.95 8.5 47.3 41 -4.1 24.6 0
19:17 1016 30 845 24.95 8.5 47.3 38 -4.8 23.3 0
19:18 1016 30 845 24.95 8.5 47.3 40 -4.2 24.4 0
19:19 1016 30 845 24.95 8.5 47.2 41 -3.9 25 0
19:20 1016 30 845 24.95 8.4 47 41 -4 24.8 0
19:21 1016 30 845 24.95 8.3 46.9 42 -3.9 24.9 0
19:22 1016 30 845 24.95 8.3 46.9 41 -4.1 24.6 0
19:23 1016 30 845 24.95 8.3 46.9 42 -4 24.8 0
19:24 1016 30 845 24.95 8.2 46.8 43 -3.6 25.6 0
19:25 1016 30 845 24.95 8.1 46.5 42 -4 24.8 0
19:26 1016 30 845 24.95 8 46.4 41 -4.5 23.9 0
19:27 1016 30 845 24.95 8 46.4 44 -3.5 25.7 0
19:28 1016 30 845 24.95 7.9 46.3 44 -3.5 25.7 0
19:29 1016 30 845 24.95 7.8 46.1 46 -2.9 26.7 0
19:30 1016 30 845 24.95 7.6 45.7 49 -2.5 27.5 0
19:31 1016 30 845 24.95 7.4 45.2 50 -2.3 27.8 0
19:32 1016 30 845 24.95 7.2 44.9 51 -2.3 27.9 0
19:33 1016 30 845 24.95 7 44.5 52 -2.3 27.8 0
19:34 1016 30 845 24.95 6.9 44.4 51 -2.4 27.6 0
19:35 1016 30 845 24.95 6.8 44.2 52 -2.4 27.7 0
19:36 1016 30 846 24.98 6.7 44 52 -2.3 27.8 0
19:37 1016 30 846 24.98 6.7 44 54 -2.1 28.2 0
19:38 1016 30 846 24.98 6.5 43.8 51 -2.8 27 0
19:39 1016 30 846 24.98 6.6 43.8 49 -3.4 25.8 0
19:40 1016 30 846 24.98 6.7 44 51 -2.7 27.1 0
19:41 1016 30 846 24.98 6.7 44 47 -3.9 24.9 0
19:42 1017 30.03 846 24.98 6.7 44.1 51 -2.8 27 0
19:43 1017 30.03 846 24.98 6.7 44 50 -3 26.6 0
19:44 1017 30.03 846 24.98 6.8 44.3 46 -3.9 24.9 0
19:45 1017 30.03 846 24.98 7.1 44.7 50 -2.6 27.3 0
19:46 1017 30.03 846 24.98 6.9 44.5 50 -2.7 27.2 0
19:47 1017 30.03 846 24.98 6.8 44.3 49 -3.2 26.3 0
19:48 1017 30.03 846 24.98 6.9 44.4 49 -3 26.7 0
19:49 1017 30.03 846 24.98 6.8 44.2 50 -3 26.7 0
19:50 1017 30.03 846 24.98 6.9 44.3 47 -3.6 25.4 0
19:51 1017 30.03 846 24.98 7 44.5 49 -2.9 26.8 0
19:52 1017 30.03 846 24.98 7 44.5 48 -3.2 26.3 0
19:53 1017 30.03 846 24.98 6.9 44.5 49 -3.1 26.5 0
19:54 1017 30.03 846 24.98 6.9 44.5 47 -3.5 25.7 0
19:55 1017 30.03 846 24.98 7 44.7 46 -3.7 25.3 0
19:56 1017 30.03 846 24.98 7.2 44.9 47 -3.2 26.2 0
19:57 1017 30.03 846 24.98 7.2 45 47 -3.2 26.2 0
19:58 1017 30.03 846 24.98 7.2 44.9 46 -3.7 25.3 0
19:59 1017 30.03 846 24.98 7.2 45 46 -3.6 25.5 0
20:00 1017 30.03 846 24.98 7.3 45.1 47 -3.2 26.3 0
20:01 1017 30.03 846 24.98 7.2 45 45 -3.8 25.1 0
20:02 1017 30.03 846 24.98 7.1 44.8 48 -3.3 26.1 0
20:03 1017 30.03 846 24.98 7 44.7 48 -3.3 26.1 0
20:04 1017 30.03 846 24.98 7 44.6 46 -3.7 25.3 0
20:05 1017 30.03 847 25.01 7 44.5 47 -3.6 25.5 0
20:06 1017 30.03 847 25.01 7 44.6 46 -3.7 25.3 0
20:07 1017 30.03 847 25.01 7 44.6 43 -4.7 23.5 0
20:08 1017 30.03 847 25.01 7.1 44.7 44 -4.5 24 0
20:09 1017 30.03 846 24.98 7.1 44.9 45 -4.1 24.6 0
20:10 1017 30.03 846 24.98 7.1 44.8 46 -3.8 25.1 0
20:11 1017 30.03 847 25.01 7 44.5 44 -4.5 23.9 0
20:12 1017 30.03 847 25.01 7 44.6 40 -5.7 21.8 0
20:13 1017 30.03 847 25.01 7.1 44.7 42 -5 23.1 0
20:14 1017 30.03 847 25.01 7.1 44.7 41 -5.3 22.4 0
20:15 1017 30.03 847 25.01 7.1 44.8 43 -4.7 23.5 0
20:16 1017 30.03 847 25.01 7 44.7 43 -4.6 23.8 0
20:17 1017 30.03 847 25.01 6.9 44.4 45 -4.2 24.4 0
20:18 1017 30.03 847 25.01 6.7 44.1 45 -4.3 24.2 0
20:19 1018 30.06 847 25.01 6.6 43.9 44 -4.9 23.2 0
20:20 1018 30.06 847 25.01 6.6 43.9 46 -4.3 24.3 0
20:21 1017 30.03 847 25.01 6.5 43.6 46 -4.2 24.4 0
20:22 1018 30.06 847 25.01 6.3 43.4 46 -4.4 24.1 0
20:23 1018 30.06 847 25.01 6.3 43.3 46 -4.5 23.9 0
20:24 1018 30.06 847 25.01 6.2 43.1 48 -3.9 25 0
20:25 1018 30.06 847 25.01 6.1 42.9 48 -4 24.8 0
20:26 1018 30.06 847 25.01 6 42.8 48 -4.2 24.5 0
20:27 1018 30.06 847 25.01 5.9 42.7 48 -4.2 24.5 0
20:28 1018 30.06 847 25.01 5.8 42.5 49 -4.1 24.6 0
20:29 1018 30.06 847 25.01 5.7 42.3 48 -4.5 23.9 0
20:30 1018 30.06 847 25.01 5.7 42.3 49 -4.3 24.3 0
20:31 1018 30.06 847 25.01 5.8 42.4 45 -5.2 22.6 0
20:32 1018 30.06 847 25.01 5.9 42.7 45 -5 23 0
20:33 1018 30.06 847 25.01 6 42.9 45 -5 23.1 0
20:34 1018 30.06 847 25.01 6 42.8 47 -4.4 24.1 0
20:35 1018 30.06 847 25.01 5.8 42.5 46 -5 23 0
20:36 1018 30.06 847 25.01 5.9 42.6 44 -5.5 22.1 0
20:37 1018 30.06 847 25.01 6 42.9 45 -5 23 0
20:38 1018 30.06 847 25.01 6 42.9 44 -5.4 22.3 0
20:39 1018 30.06 847 25.01 6.1 43 45 -4.8 23.3 0
20:40 1018 30.06 847 25.01 6.1 42.9 43 -5.6 21.9 0
20:41 1018 30.06 847 25.01 6.2 43.2 43 -5.4 22.3 0
20:42 1018 30.06 847 25.01 6.2 43.2 43 -5.4 22.4 0
20:43 1018 30.06 847 25.01 6.2 43.2 44 -5.2 22.7 0
20:44 1018 30.06 847 25.01 6.1 43 44 -5.1 22.7 0
20:45 1018 30.06 847 25.01 6.1 43 44 -5.2 22.6 0
20:46 1018 30.06 847 25.01 6.1 43 44 -5.3 22.4 0
20:47 1018 30.06 847 25.01 6 42.9 46 -4.7 23.6 0
20:48 1018 30.06 847 25.01 5.9 42.6 46 -5 23.1 0
20:49 1018 30.06 847 25.01 5.8 42.5 46 -4.8 23.3 0
20:50 1018 30.06 847 25.01 5.7 42.3 45 -5.2 22.6 0
20:51 1018 30.06 847 25.01 5.8 42.4 47 -4.8 23.4 0
20:52 1018 30.06 847 25.01 5.8 42.4 45 -5.3 22.4 0
20:53 1018 30.06 847 25.01 5.9 42.6 45 -5 22.9 0
20:54 1018 30.06 847 25.01 5.9 42.7 44 -5.4 22.3 0
20:55 1018 30.06 847 25.01 6 42.7 44 -5.5 22.2 0
20:56 1018 30.06 847 25.01 6 42.9 43 -5.7 21.7 0
20:57 1018 30.06 847 25.01 6.1 43 43 -5.5 22.1 0
20:58 1018 30.06 847 25.01 6.2 43.1 42 -5.8 21.6 0
20:59 1018 30.06 847 25.01 6.2 43.2 42 -5.8 21.6 0
21:00 1018 30.06 847 25.01 6.3 43.3 43 -5.4 22.3 0
21:01 1018 30.06 847 25.01 6.3 43.4 42 -5.7 21.8 0
21:02 1018 30.06 847 25.01 6.3 43.3 44 -5 23.1 0
21:03 1018 30.06 847 25.01 6.1 43 45 -5 23 0
21:04 1018 30.06 847 25.01 6 42.9 44 -5.2 22.6 0
21:05 1018 30.06 847 25.01 6.1 42.9 41 -6.2 20.9 0
21:06 1018 30.06 847 25.01 6.2 43.2 39 -6.6 20.1 0
21:07 1018 30.06 847 25.01 6.5 43.7 41 -5.7 21.8 0
21:08 1018 30.06 847 25.01 6.6 43.9 43 -5.1 22.8 0
21:09 1018 30.06 847 25.01 6.6 43.8 43 -5.1 22.9 0
21:10 1018 30.06 847 25.01 6.5 43.8 41 -5.9 21.3 0
21:11 1018 30.06 847 25.01 6.5 43.7 40 -6.1 21.1 0
21:12 1018 30.06 847 25.01 6.6 43.8 41 -5.7 21.7 0
21:13 1018 30.06 847 25.01 6.6 43.9 43 -5.2 22.7 0
21:14 1018 30.06 847 25.01 6.6 43.8 40 -6 21.3 0
21:15 1018 30.06 847 25.01 6.6 43.9 42 -5.4 22.2 0
21:16 1018 30.06 847 25.01 6.6 43.9 42 -5.3 22.4 0
21:17 1018 30.06 847 25.01 6.5 43.8 43 -5.3 22.5 0
21:18 1018 30.06 847 25.01 6.4 43.6 46 -4.4 24 0
21:19 1018 30.06 847 25.01 6.3 43.3 44 -5.2 22.7 0
21:20 1018 30.06 847 25.01 6.1 43 46 -4.7 23.6 0
21:21 1018 30.06 847 25.01 6 42.9 45 -5 23 0
21:22 1018 30.06 847 25.01 6 42.7 47 -4.6 23.8 0
21:23 1018 30.06 847 25.01 5.9 42.6 48 -4.2 24.4 0
21:24 1018 30.06 847 25.01 5.7 42.3 48 -4.4 24 0
21:25 1018 30.06 847 25.01 5.7 42.2 48 -4.5 23.9 0
21:26 1018 30.06 847 25.01 5.6 42.1 49 -4.4 24.1 0
21:27 1018 30.06 847 25.01 5.5 41.9 49 -4.2 24.4 0
21:28 1018 30.06 847 25.01 5.4 41.8 49 -4.3 24.2 0
21:29 1018 30.06 847 25.01 5.3 41.6 51 -3.9 25 0
21:30 1018 30.06 847 25.01 5.2 41.3 52 -3.7 25.3 0
21:31 1018 30.06 847 25.01 5.1 41.1 53 -3.8 25.1 0
21:32 1018 30.06 847 25.01 4.9 40.8 54 -3.7 25.4 0
21:33 1018 30.06 847 25.01 4.9 40.7 52 -4.2 24.5 0
21:34 1018 30.06 847 25.01 4.8 40.7 51 -4.4 24 0
21:35 1018 30.06 847 25.01 4.9 40.8 50 -4.8 23.4 0
21:36 1018 30.06 847 25.01 5 41 50 -4.5 23.8 0
21:37 1018 30.06 847 25.01 5.1 41.1 48 -4.9 23.1 0
21:38 1018 30.06 847 25.01 5.2 41.4 49 -4.7 23.6 0
21:39 1018 30.06 847 25.01 5.2 41.4 47 -5.2 22.7 0
21:40 1018 30.06 847 25.01 5.3 41.6 46 -5.3 22.4 0
21:41 1018 30.06 847 25.01 5.4 41.7 46 -5.5 22.2 0
21:42 1018 30.06 847 25.01 5.5 41.9 45 -5.5 22.1 0
21:43 1018 30.06 847 25.01 5.6 42 44 -5.7 21.7 0
21:44 1018 30.06 847 25.01 5.6 42.1 43 -5.9 21.4 0
21:45 1018 30.06 847 25.01 5.7 42.3 43 -5.8 21.5 0
21:46 1018 30.06 847 25.01 5.8 42.4 43 -5.8 21.5 0
21:47 1018 30.06 847 25.01 5.8 42.4 43 -5.8 21.5 0
21:48 1018 30.06 847 25.01 5.8 42.5 44 -5.6 22 0
21:49 1018 30.06 847 25.01 5.8 42.4 44 -5.4 22.2 0
21:50 1018 30.06 847 25.01 5.8 42.4 44 -5.7 21.8 0
21:51 1018 30.06 847 25.01 5.8 42.4 43 -5.7 21.7 0
21:52 1018 30.06 847 25.01 5.8 42.4 44 -5.6 21.8 0
21:53 1018 30.06 847 25.01 5.8 42.4 43 -5.7 21.7 0
21:54 1018 30.06 847 25.01 5.8 42.5 43 -5.7 21.7 0
21:55 1018 30.06 847 25.01 5.9 42.6 43 -5.9 21.5 0
21:56 1018 30.06 847 25.01 5.9 42.7 43 -5.8 21.6 0
21:57 1018 30.06 847 25.01 6 42.7 43 -5.7 21.8 0
21:58 1018 30.06 847 25.01 6 42.8 43 -5.6 22 0
21:59 1018 30.06 847 25.01 6 42.8 42 -5.8 21.5 0
22:00 1018 30.06 847 25.01 6 42.8 41 -6.4 20.5 0
22:01 1018 30.06 847 25.01 6.1 42.9 39 -6.9 19.6 0
22:02 1018 30.06 847 25.01 6.2 43.2 42 -5.7 21.7 0
22:03 1018 30.06 847 25.01 6.3 43.3 41 -6.1 21.1 0
22:04 1018 30.06 847 25.01 6.3 43.3 42 -5.6 21.9 0
22:05 1018 30.06 847 25.01 6.2 43.2 42 -5.8 21.5 0
22:06 1018 30.06 847 25.01 6.2 43.1 43 -5.4 22.3 0
22:07 1018 30.06 847 25.01 6.1 43.1 41 -6.1 21.1 0
22:08 1018 30.06 847 25.01 6.1 42.9 43 -5.4 22.2 0
22:09 1018 30.06 847 25.01 6.1 43 43 -5.7 21.8 0
22:10 1018 30.06 847 25.01 6.1 43 40 -6.5 20.4 0
22:11 1018 30.06 847 25.01 6.2 43.1 38 -7.2 19.1 0
22:12 1018 30.06 847 25.01 6.2 43.2 40 -6.4 20.5 0
22:13 1018 30.06 847 25.01 6.3 43.4 42 -5.8 21.6 0
22:14 1018 30.06 847 25.01 6.3 43.3 40 -6.4 20.4 0
22:15 1018 30.06 847 25.01 6.3 43.3 39 -6.5 20.3 0
22:16 1018 30.06 847 25.01 6.3 43.4 38 -6.9 19.5 0
22:17 1018 30.06 847 25.01 6.4 43.6 37 -7.1 19.3 0
22:18 1018 30.06 847 25.01 6.6 43.8 37 -7 19.4 0
22:19 1018 30.06 847 25.01 6.7 44 38 -6.8 19.8 0
22:20 1018 30.06 847 25.01 6.7 44.1 36 -7.2 19 0
22:21 1018 30.06 847 25.01 6.8 44.2 37 -6.9 19.6 0
22:22 1018 30.06 847 25.01 6.8 44.3 36 -7.3 18.9 0
22:23 1018 30.06 847 25.01 6.9 44.4 37 -6.8 19.7 0
22:24 1018 30.06 847 25.01 6.9 44.4 37 -6.9 19.6 0
22:25 1018 30.06 847 25.01 6.9 44.4 38 -6.6 20.2 0
22:26 1018 30.06 847 25.01 6.7 44 42 -5.5 22.1 0
22:27 1018 30.06 847 25.01 6.1 43.1 50 -3.6 25.5 0
22:28 1018 30.06 847 25.01 5.4 41.7 53 -3.3 26 0
22:29 1018 30.06 847 25.01 4.8 40.6 55 -3.5 25.7 0
22:30 1018 30.06 847 25.01 4.4 39.8 57 -3.4 25.9 0
22:31 1018 30.06 847 25.01 4 39.2 57 -3.7 25.3 0
22:32 1018 30.06 847 25.01 3.8 38.9 58 -3.7 25.4 0
22:33 1018 30.06 847 25.01 3.7 38.7 56 -4.1 24.6 0
22:34 1018 30.06 847 25.01 3.7 38.7 57 -3.9 24.9 0
22:35 1018 30.06 847 25.01 3.7 38.6 59 -3.5 25.6 0
22:36 1018 30.06 847 25.01 3.5 38.3 60 -3.5 25.7 0
22:37 1018 30.06 847 25.01 3.4 38.1 62 -3.2 26.3 0
22:38 1018 30.06 847 25.01 3.2 37.7 64 -3 26.6 0
22:39 1018 30.06 847 25.01 3 37.4 65 -2.9 26.7 0
22:40 1018 30.06 847 25.01 2.8 37 66 -2.9 26.7 0
22:41 1018 30.06 847 25.01 2.7 36.8 67 -2.9 26.8 0
22:42 1018 30.06 847 25.01 2.6 36.6 67 -2.9 26.9 0
22:43 1018 30.06 847 25.01 2.5 36.5 66 -3.1 26.3 0
22:44 1018 30.06 847 25.01 2.5 36.6 68 -2.9 26.9 0
22:45 1018 30.06 847 25.01 2.5 36.4 67 -3 26.6 0
22:46 1018 30.06 847 25.01 2.5 36.4 67 -3 26.6 0
22:47 1018 30.06 847 25.01 2.5 36.4 68 -2.8 26.9 0
22:48 1018 30.06 847 25.01 2.4 36.4 69 -2.6 27.3 0
22:49 1018 30.06 847 25.01 2.3 36.2 70 -2.6 27.3 0
22:50 1018 30.06 847 25.01 2.3 36.2 70 -2.6 27.3 0
22:51 1018 30.06 847 25.01 2.3 36.1 70 -2.6 27.4 0
22:52 1018 30.06 847 25.01 2.2 36 71 -2.5 27.4 0
22:53 1018 30.06 847 25.01 2.2 36 71 -2.5 27.5 0
22:54 1018 30.06 847 25.01 2.1 35.8 71 -2.6 27.4 0
22:55 1018 30.06 847 25.01 2.2 35.9 71 -2.6 27.4 0
22:56 1018 30.06 847 25.01 2.2 35.9 70 -2.7 27.1 0
22:57 1018 30.06 847 25.01 2.2 36 70 -2.7 27.1 0
22:58 1018 30.06 847 25.01 2.2 36 69 -2.8 27 0
22:59 1018 30.06 847 25.01 2.3 36.2 69 -2.8 26.9 0
23:00 1018 30.06 847 25.01 2.4 36.3 68 -2.9 26.8 0
23:01 1018 30.06 847 25.01 2.4 36.3 69 -2.8 27 0
23:02 1018 30.06 847 25.01 2.4 36.3 70 -2.6 27.3 0
23:03 1018 30.06 847 25.01 2.3 36.1 70 -2.7 27.1 0
23:04 1018 30.06 847 25.01 2.2 36 70 -2.7 27.2 0
23:05 1018 30.06 847 25.01 2.1 35.9 71 -2.6 27.3 0
23:06 1018 30.06 847 25.01 2.1 35.7 73 -2.3 27.8 0
23:07 1018 30.06 847 25.01 1.9 35.5 72 -2.5 27.5 0
23:08 1018 30.06 847 25.01 1.8 35.2 74 -2.4 27.6 0
23:09 1018 30.06 847 25.01 1.7 35.1 75 -2.3 27.9 0
23:10 1018 30.06 847 25.01 1.6 34.9 75 -2.4 27.7 0
23:11 1018 30.06 847 25.01 1.6 34.8 75 -2.4 27.7 0
23:12 1018 30.06 847 25.01 1.6 34.8 75 -2.4 27.7 0
23:13 1018 30.06 847 25.01 1.5 34.8 76 -2.3 27.8 0
23:14 1018 30.06 847 25.01 1.5 34.6 75 -2.4 27.7 0
23:15 1018 30.06 847 25.01 1.4 34.6 75 -2.5 27.5 0
23:16 1018 30.06 847 25.01 1.4 34.6 75 -2.6 27.4 0
23:17 1018 30.06 847 25.01 1.5 34.7 74 -2.5 27.4 0
23:18 1018 30.06 847 25.01 1.5 34.8 74 -2.6 27.4 0
23:19 1018 30.06 847 25.01 1.5 34.8 74 -2.6 27.3 0
23:20 1018 30.06 847 25.01 1.5 34.8 73 -2.7 27.1 0
23:21 1018 30.06 847 25.01 1.6 34.8 73 -2.7 27.1 0
23:22 1018 30.06 847 25.01 1.6 34.8 74 -2.5 27.5 0
23:23 1018 30.06 847 25.01 1.6 34.8 74 -2.7 27.2 0
23:24 1018 30.06 847 25.01 1.6 34.9 73 -2.8 27 0
23:25 1018 30.06 847 25.01 1.7 35.1 72 -2.7 27.1 0
23:26 1018 30.06 847 25.01 1.8 35.3 73 -2.6 27.4 0
23:27 1018 30.06 847 25.01 1.8 35.3 72 -2.6 27.3 0
23:28 1018 30.06 847 25.01 1.8 35.3 72 -2.7 27.2 0
23:29 1018 30.06 847 25.01 1.8 35.3 72 -2.7 27.2 0
23:30 1018 30.06 847 25.01 1.9 35.3 72 -2.7 27.2 0
23:31 1018 30.06 847 25.01 1.9 35.3 72 -2.7 27.2 0
23:32 1018 30.06 847 25.01 1.8 35.3 72 -2.6 27.3 0
23:33 1018 30.06 847 25.01 1.8 35.2 73 -2.5 27.4 0
23:34 1018 30.06 847 25.01 1.7 35.1 74 -2.5 27.5 0
23:35 1018 30.06 847 25.01 1.7 35.1 73 -2.6 27.4 0
23:36 1018 30.06 847 25.01 1.7 35.1 74 -2.5 27.5 0
23:37 1018 30.06 847 25.01 1.7 35 74 -2.5 27.5 0
23:38 1018 30.06 847 25.01 1.6 35 74 -2.4 27.6 0
23:39 1018 30.06 847 25.01 1.6 34.9 74 -2.6 27.4 0
23:40 1018 30.06 847 25.01 1.6 34.9 74 -2.6 27.4 0
23:41 1018 30.06 847 25.01 1.6 35 74 -2.6 27.4 0
23:42 1018 30.06 847 25.01 1.7 35 74 -2.5 27.5 0
23:43 1018 30.06 847 25.01 1.6 34.9 74 -2.5 27.5 0
23:44 1018 30.06 847 25.01 1.6 34.8 74 -2.6 27.3 0
23:45 1018 30.06 847 25.01 1.6 34.8 73 -2.7 27.1 0
23:46 1018 30.06 847 25.01 1.6 35 73 -2.7 27.1 0
23:47 1018 30.06 847 25.01 1.8 35.2 70 -3.2 26.3 0
23:48 1018 30.06 847 25.01 2 35.7 69 -3 26.6 0
23:49 1018 30.06 847 25.01 2.2 35.9 69 -3 26.6 0
23:50 1018 30.06 847 25.01 2.2 36 69 -2.9 26.7 0
23:51 1018 30.06 847 25.01 2.2 36 69 -3 26.7 0
23:52 1018 30.06 847 25.01 2.3 36.1 69 -2.9 26.8 0
23:53 1018 30.06 847 25.01 2.2 36 70 -2.7 27.1 0
23:54 1018 30.06 847 25.01 2.1 35.8 71 -2.6 27.4 0
23:55 1018 30.06 847 25.01 2 35.5 72 -2.5 27.5 0
23:56 1018 30.06 847 25.01 1.8 35.3 73 -2.5 27.6 0
23:57 1018 30.06 847 25.01 1.7 35 74 -2.5 27.4 0
23:58 1018 30.06 847 25.01 1.6 34.9 75 -2.4 27.7 0
23:59 1018 30.06 847 25.01 1.5 34.7 76 -2.3 27.9 0
24:00 1018 30.06 847 25.01 1.3 34.4 77 -2.2 28 0